<?xml version="1.0" encoding="utf-8"?>
<gpx xmlns:xsi="http://www.w3.org/2001/XMLSchema-instance" xmlns:xsd="http://www.w3.org/2001/XMLSchema" version="1.1" creator="Shapelink.com" xmlns="http://www.topografix.com/GPX/1/1" xmlns:gpxtpx="http://www.garmin.com/xmlschemas/TrackPointExtension/v1">
  <metadata>
    <name>Running 19.24 km, 2012-09-01</name>
    <desc></desc>
    <author><name>Ulf Andrae</name></author> 
    <time>2012-09-01T07:00:28Z</time>
  </metadata>
  <trk>
    <name>Running 19.24 km, 2012-09-01</name>
    <trkseg>
      <trkpt lat="58.6617359798" lon="16.0060902592">
        <ele>67.43</ele>
        <time>2012-09-01T07:00:28Z</time>
      </trkpt>
      <trkpt lat="58.6617793981" lon="16.0061205178">
        <ele>67.43</ele>
        <time>2012-09-01T07:00:32Z</time>
      </trkpt>
      <trkpt lat="58.6618062202" lon="16.0061954521">
        <ele>66.95</ele>
        <time>2012-09-01T07:00:34Z</time>
      </trkpt>
      <trkpt lat="58.6617967486" lon="16.0063915886">
        <ele>67.43</ele>
        <time>2012-09-01T07:00:38Z</time>
      </trkpt>
      <trkpt lat="58.6617813259" lon="16.0065328237">
        <ele>67.43</ele>
        <time>2012-09-01T07:00:41Z</time>
      </trkpt>
      <trkpt lat="58.6616878677" lon="16.0068989452">
        <ele>67.43</ele>
        <time>2012-09-01T07:00:49Z</time>
      </trkpt>
      <trkpt lat="58.6616545077" lon="16.0070305411">
        <ele>67.43</ele>
        <time>2012-09-01T07:00:52Z</time>
      </trkpt>
      <trkpt lat="58.6615346465" lon="16.0075223912">
        <ele>67.43</ele>
        <time>2012-09-01T07:01:02Z</time>
      </trkpt>
      <trkpt lat="58.6614957545" lon="16.0076837428">
        <ele>66.95</ele>
        <time>2012-09-01T07:01:05Z</time>
      </trkpt>
      <trkpt lat="58.6614027154" lon="16.0080297478">
        <ele>67.91</ele>
        <time>2012-09-01T07:01:13Z</time>
      </trkpt>
      <trkpt lat="58.6613887176" lon="16.0080686398">
        <ele>67.91</ele>
        <time>2012-09-01T07:01:14Z</time>
      </trkpt>
      <trkpt lat="58.6613546871" lon="16.0082418937">
        <ele>67.91</ele>
        <time>2012-09-01T07:01:18Z</time>
      </trkpt>
      <trkpt lat="58.6612950079" lon="16.0083196778">
        <ele>67.91</ele>
        <time>2012-09-01T07:01:21Z</time>
      </trkpt>
      <trkpt lat="58.661133321" lon="16.0088856239">
        <ele>68.87</ele>
        <time>2012-09-01T07:01:32Z</time>
      </trkpt>
      <trkpt lat="58.6611159705" lon="16.0089251865">
        <ele>68.87</ele>
        <time>2012-09-01T07:01:33Z</time>
      </trkpt>
      <trkpt lat="58.6610970274" lon="16.0090417787">
        <ele>68.87</ele>
        <time>2012-09-01T07:01:36Z</time>
      </trkpt>
      <trkpt lat="58.6610623263" lon="16.0092301201">
        <ele>69.35</ele>
        <time>2012-09-01T07:01:41Z</time>
      </trkpt>
      <trkpt lat="58.661029553" lon="16.0093849339">
        <ele>69.83</ele>
        <time>2012-09-01T07:01:45Z</time>
      </trkpt>
      <trkpt lat="58.6610946804" lon="16.0096021928">
        <ele>68.87</ele>
        <time>2012-09-01T07:01:50Z</time>
      </trkpt>
      <trkpt lat="58.6612549424" lon="16.009941576">
        <ele>68.87</ele>
        <time>2012-09-01T07:01:57Z</time>
      </trkpt>
      <trkpt lat="58.6614275258" lon="16.0103469249">
        <ele>68.87</ele>
        <time>2012-09-01T07:02:07Z</time>
      </trkpt>
      <trkpt lat="58.6615292821" lon="16.0106967017">
        <ele>69.35</ele>
        <time>2012-09-01T07:02:16Z</time>
      </trkpt>
      <trkpt lat="58.6615503207" lon="16.0107907467">
        <ele>69.83</ele>
        <time>2012-09-01T07:02:18Z</time>
      </trkpt>
      <trkpt lat="58.6615892127" lon="16.0109381005">
        <ele>69.83</ele>
        <time>2012-09-01T07:02:21Z</time>
      </trkpt>
      <trkpt lat="58.6616673321" lon="16.0111464746">
        <ele>70.79</ele>
        <time>2012-09-01T07:02:26Z</time>
      </trkpt>
      <trkpt lat="58.661822062" lon="16.0115413461">
        <ele>71.76</ele>
        <time>2012-09-01T07:02:36Z</time>
      </trkpt>
      <trkpt lat="58.6619641352" lon="16.0115115065">
        <ele>71.76</ele>
        <time>2012-09-01T07:02:42Z</time>
      </trkpt>
      <trkpt lat="58.6623968929" lon="16.0114682559">
        <ele>70.79</ele>
        <time>2012-09-01T07:02:56Z</time>
      </trkpt>
      <trkpt lat="58.6627308279" lon="16.0112773161">
        <ele>70.79</ele>
        <time>2012-09-01T07:03:08Z</time>
      </trkpt>
      <trkpt lat="58.6629511882" lon="16.0109707061">
        <ele>69.83</ele>
        <time>2012-09-01T07:03:18Z</time>
      </trkpt>
      <trkpt lat="58.6631386075" lon="16.0108149704">
        <ele>68.87</ele>
        <time>2012-09-01T07:03:25Z</time>
      </trkpt>
      <trkpt lat="58.6634217482" lon="16.0106016509">
        <ele>68.87</ele>
        <time>2012-09-01T07:03:36Z</time>
      </trkpt>
      <trkpt lat="58.6636821739" lon="16.0103947856">
        <ele>68.87</ele>
        <time>2012-09-01T07:03:47Z</time>
      </trkpt>
      <trkpt lat="58.6639547534" lon="16.0103009921">
        <ele>69.35</ele>
        <time>2012-09-01T07:03:57Z</time>
      </trkpt>
      <trkpt lat="58.664211994" lon="16.0103405546">
        <ele>68.87</ele>
        <time>2012-09-01T07:04:06Z</time>
      </trkpt>
      <trkpt lat="58.66431945" lon="16.010346422">
        <ele>69.35</ele>
        <time>2012-09-01T07:04:10Z</time>
      </trkpt>
      <trkpt lat="58.6646152474" lon="16.0103199352">
        <ele>70.31</ele>
        <time>2012-09-01T07:04:21Z</time>
      </trkpt>
      <trkpt lat="58.6648314167" lon="16.0101572424">
        <ele>69.83</ele>
        <time>2012-09-01T07:04:29Z</time>
      </trkpt>
      <trkpt lat="58.6650130525" lon="16.0098399874">
        <ele>70.79</ele>
        <time>2012-09-01T07:04:38Z</time>
      </trkpt>
      <trkpt lat="58.6651884858" lon="16.0093466286">
        <ele>70.31</ele>
        <time>2012-09-01T07:04:49Z</time>
      </trkpt>
      <trkpt lat="58.665327793" lon="16.008919403">
        <ele>69.83</ele>
        <time>2012-09-01T07:04:59Z</time>
      </trkpt>
      <trkpt lat="58.6653849576" lon="16.0087522678">
        <ele>69.83</ele>
        <time>2012-09-01T07:05:03Z</time>
      </trkpt>
      <trkpt lat="58.66554874" lon="16.0082362778">
        <ele>69.83</ele>
        <time>2012-09-01T07:05:15Z</time>
      </trkpt>
      <trkpt lat="58.6656094249" lon="16.0080360342">
        <ele>70.31</ele>
        <time>2012-09-01T07:05:20Z</time>
      </trkpt>
      <trkpt lat="58.6656859517" lon="16.0078471061">
        <ele>69.83</ele>
        <time>2012-09-01T07:05:25Z</time>
      </trkpt>
      <trkpt lat="58.6658199783" lon="16.0074191261">
        <ele>69.35</ele>
        <time>2012-09-01T07:05:35Z</time>
      </trkpt>
      <trkpt lat="58.6658514943" lon="16.0073533282">
        <ele>69.35</ele>
        <time>2012-09-01T07:05:37Z</time>
      </trkpt>
      <trkpt lat="58.6660565995" lon="16.0070099216">
        <ele>68.87</ele>
        <time>2012-09-01T07:05:48Z</time>
      </trkpt>
      <trkpt lat="58.6661183741" lon="16.0069658328">
        <ele>69.35</ele>
        <time>2012-09-01T07:05:51Z</time>
      </trkpt>
      <trkpt lat="58.6662498023" lon="16.0069713648">
        <ele>68.39</ele>
        <time>2012-09-01T07:05:56Z</time>
      </trkpt>
      <trkpt lat="58.6666128226" lon="16.0071177967">
        <ele>66.95</ele>
        <time>2012-09-01T07:06:09Z</time>
      </trkpt>
      <trkpt lat="58.6669106316" lon="16.0072939005">
        <ele>65.03</ele>
        <time>2012-09-01T07:06:20Z</time>
      </trkpt>
      <trkpt lat="58.6670599133" lon="16.0074034519">
        <ele>64.55</ele>
        <time>2012-09-01T07:06:26Z</time>
      </trkpt>
      <trkpt lat="58.6673846282" lon="16.0075844172">
        <ele>63.58</ele>
        <time>2012-09-01T07:06:38Z</time>
      </trkpt>
      <trkpt lat="58.6676748935" lon="16.0079431627">
        <ele>65.03</ele>
        <time>2012-09-01T07:06:51Z</time>
      </trkpt>
      <trkpt lat="58.6677664239" lon="16.0083589889">
        <ele>66.47</ele>
        <time>2012-09-01T07:07:00Z</time>
      </trkpt>
      <trkpt lat="58.667785367" lon="16.0088363383">
        <ele>68.39</ele>
        <time>2012-09-01T07:07:09Z</time>
      </trkpt>
      <trkpt lat="58.6677906476" lon="16.0091374163">
        <ele>69.35</ele>
        <time>2012-09-01T07:07:15Z</time>
      </trkpt>
      <trkpt lat="58.6678131111" lon="16.0095199663">
        <ele>70.79</ele>
        <time>2012-09-01T07:07:23Z</time>
      </trkpt>
      <trkpt lat="58.6678161286" lon="16.0098659713">
        <ele>71.27</ele>
        <time>2012-09-01T07:07:30Z</time>
      </trkpt>
      <trkpt lat="58.6679140292" lon="16.0103654489">
        <ele>72.24</ele>
        <time>2012-09-01T07:07:40Z</time>
      </trkpt>
      <trkpt lat="58.6679753009" lon="16.0108060017">
        <ele>72.24</ele>
        <time>2012-09-01T07:07:49Z</time>
      </trkpt>
      <trkpt lat="58.6680539232" lon="16.0112171341">
        <ele>71.76</ele>
        <time>2012-09-01T07:07:57Z</time>
      </trkpt>
      <trkpt lat="58.6682044622" lon="16.0117163602">
        <ele>72.72</ele>
        <time>2012-09-01T07:08:08Z</time>
      </trkpt>
      <trkpt lat="58.6683540791" lon="16.0121438373">
        <ele>73.2</ele>
        <time>2012-09-01T07:08:17Z</time>
      </trkpt>
      <trkpt lat="58.6684368923" lon="16.0123030934">
        <ele>73.68</ele>
        <time>2012-09-01T07:08:22Z</time>
      </trkpt>
      <trkpt lat="58.6685984954" lon="16.012564525">
        <ele>74.16</ele>
        <time>2012-09-01T07:08:30Z</time>
      </trkpt>
      <trkpt lat="58.6686840747" lon="16.0126760881">
        <ele>74.64</ele>
        <time>2012-09-01T07:08:34Z</time>
      </trkpt>
      <trkpt lat="58.6688868329" lon="16.0129547026">
        <ele>74.64</ele>
        <time>2012-09-01T07:08:43Z</time>
      </trkpt>
      <trkpt lat="58.668992864" lon="16.0131491628">
        <ele>74.64</ele>
        <time>2012-09-01T07:08:49Z</time>
      </trkpt>
      <trkpt lat="58.6690996494" lon="16.0135528352">
        <ele>75.12</ele>
        <time>2012-09-01T07:08:59Z</time>
      </trkpt>
      <trkpt lat="58.6691220291" lon="16.0136512388">
        <ele>74.64</ele>
        <time>2012-09-01T07:09:01Z</time>
      </trkpt>
      <trkpt lat="58.6691744998" lon="16.0142728407">
        <ele>75.12</ele>
        <time>2012-09-01T07:09:12Z</time>
      </trkpt>
      <trkpt lat="58.6692400463" lon="16.0147061013">
        <ele>76.56</ele>
        <time>2012-09-01T07:09:21Z</time>
      </trkpt>
      <trkpt lat="58.6692392081" lon="16.0148045886">
        <ele>76.56</ele>
        <time>2012-09-01T07:09:23Z</time>
      </trkpt>
      <trkpt lat="58.669255469" lon="16.0151645076">
        <ele>77.52</ele>
        <time>2012-09-01T07:09:30Z</time>
      </trkpt>
      <trkpt lat="58.6692606658" lon="16.0156434495">
        <ele>77.52</ele>
        <time>2012-09-01T07:09:39Z</time>
      </trkpt>
      <trkpt lat="58.6692203488" lon="16.0158864409">
        <ele>77.52</ele>
        <time>2012-09-01T07:09:44Z</time>
      </trkpt>
      <trkpt lat="58.6691277288" lon="16.0164072923">
        <ele>77.52</ele>
        <time>2012-09-01T07:09:55Z</time>
      </trkpt>
      <trkpt lat="58.6690741684" lon="16.0168079473">
        <ele>77.04</ele>
        <time>2012-09-01T07:10:03Z</time>
      </trkpt>
      <trkpt lat="58.6690470949" lon="16.0171632562">
        <ele>77.52</ele>
        <time>2012-09-01T07:10:10Z</time>
      </trkpt>
      <trkpt lat="58.6689863261" lon="16.0176996142">
        <ele>77.52</ele>
        <time>2012-09-01T07:10:21Z</time>
      </trkpt>
      <trkpt lat="58.6689953785" lon="16.018210575">
        <ele>78</ele>
        <time>2012-09-01T07:10:31Z</time>
      </trkpt>
      <trkpt lat="58.6690147407" lon="16.0187100526">
        <ele>78.48</ele>
        <time>2012-09-01T07:10:41Z</time>
      </trkpt>
      <trkpt lat="58.669057237" lon="16.0192324128">
        <ele>78.48</ele>
        <time>2012-09-01T07:10:51Z</time>
      </trkpt>
      <trkpt lat="58.6689755134" lon="16.0197431222">
        <ele>78.48</ele>
        <time>2012-09-01T07:11:01Z</time>
      </trkpt>
      <trkpt lat="58.6688556522" lon="16.0202669073">
        <ele>78</ele>
        <time>2012-09-01T07:11:11Z</time>
      </trkpt>
      <trkpt lat="58.6687462684" lon="16.0206605215">
        <ele>78.97</ele>
        <time>2012-09-01T07:11:20Z</time>
      </trkpt>
      <trkpt lat="58.6686493736" lon="16.0212201811">
        <ele>79.45</ele>
        <time>2012-09-01T07:11:31Z</time>
      </trkpt>
      <trkpt lat="58.6686127447" lon="16.0216030665">
        <ele>80.89</ele>
        <time>2012-09-01T07:11:39Z</time>
      </trkpt>
      <trkpt lat="58.6686311848" lon="16.0220973473">
        <ele>83.77</ele>
        <time>2012-09-01T07:11:49Z</time>
      </trkpt>
      <trkpt lat="58.6687626131" lon="16.0225151014">
        <ele>85.69</ele>
        <time>2012-09-01T07:11:59Z</time>
      </trkpt>
      <trkpt lat="58.6688795406" lon="16.0230091307">
        <ele>85.69</ele>
        <time>2012-09-01T07:12:10Z</time>
      </trkpt>
      <trkpt lat="58.6690031737" lon="16.0233977996">
        <ele>85.21</ele>
        <time>2012-09-01T07:12:19Z</time>
      </trkpt>
      <trkpt lat="58.6690392159" lon="16.0235324968">
        <ele>85.69</ele>
        <time>2012-09-01T07:12:22Z</time>
      </trkpt>
      <trkpt lat="58.6691034213" lon="16.0237861332">
        <ele>85.21</ele>
        <time>2012-09-01T07:12:28Z</time>
      </trkpt>
      <trkpt lat="58.6691077799" lon="16.0238923319">
        <ele>85.69</ele>
        <time>2012-09-01T07:12:30Z</time>
      </trkpt>
      <trkpt lat="58.6691376194" lon="16.0241478123">
        <ele>85.69</ele>
        <time>2012-09-01T07:12:35Z</time>
      </trkpt>
      <trkpt lat="58.6691244598" lon="16.0244819988">
        <ele>87.14</ele>
        <time>2012-09-01T07:12:43Z</time>
      </trkpt>
      <trkpt lat="58.6690923572" lon="16.024690792">
        <ele>88.58</ele>
        <time>2012-09-01T07:12:48Z</time>
      </trkpt>
      <trkpt lat="58.6690036766" lon="16.0251154192">
        <ele>90.02</ele>
        <time>2012-09-01T07:12:57Z</time>
      </trkpt>
      <trkpt lat="58.6689889245" lon="16.0254325066">
        <ele>90.02</ele>
        <time>2012-09-01T07:13:03Z</time>
      </trkpt>
      <trkpt lat="58.6689973902" lon="16.0256135557">
        <ele>90.5</ele>
        <time>2012-09-01T07:13:07Z</time>
      </trkpt>
      <trkpt lat="58.6690401379" lon="16.0258414596">
        <ele>90.98</ele>
        <time>2012-09-01T07:13:12Z</time>
      </trkpt>
      <trkpt lat="58.6691671237" lon="16.0264557693">
        <ele>90.5</ele>
        <time>2012-09-01T07:13:25Z</time>
      </trkpt>
      <trkpt lat="58.6692878231" lon="16.0270199552">
        <ele>89.54</ele>
        <time>2012-09-01T07:13:36Z</time>
      </trkpt>
      <trkpt lat="58.669311963" lon="16.0276531242">
        <ele>89.54</ele>
        <time>2012-09-01T07:13:48Z</time>
      </trkpt>
      <trkpt lat="58.6692806147" lon="16.0279751569">
        <ele>89.06</ele>
        <time>2012-09-01T07:13:54Z</time>
      </trkpt>
      <trkpt lat="58.6691956222" lon="16.0282339901">
        <ele>89.06</ele>
        <time>2012-09-01T07:14:02Z</time>
      </trkpt>
      <trkpt lat="58.6691130605" lon="16.0281785019">
        <ele>89.54</ele>
        <time>2012-09-01T07:14:06Z</time>
      </trkpt>
      <trkpt lat="58.6690021679" lon="16.0281247739">
        <ele>90.02</ele>
        <time>2012-09-01T07:14:10Z</time>
      </trkpt>
      <trkpt lat="58.6687006708" lon="16.0284086689">
        <ele>89.06</ele>
        <time>2012-09-01T07:14:21Z</time>
      </trkpt>
      <trkpt lat="58.6685916223" lon="16.028463738">
        <ele>87.62</ele>
        <time>2012-09-01T07:14:24Z</time>
      </trkpt>
      <trkpt lat="58.6684455257" lon="16.0286537558">
        <ele>87.14</ele>
        <time>2012-09-01T07:14:29Z</time>
      </trkpt>
      <trkpt lat="58.6683177017" lon="16.028832458">
        <ele>86.66</ele>
        <time>2012-09-01T07:14:35Z</time>
      </trkpt>
      <trkpt lat="58.6681198888" lon="16.0289626289">
        <ele>84.25</ele>
        <time>2012-09-01T07:14:44Z</time>
      </trkpt>
      <trkpt lat="58.6681110039" lon="16.0290031135">
        <ele>84.25</ele>
        <time>2012-09-01T07:14:45Z</time>
      </trkpt>
      <trkpt lat="58.6681144405" lon="16.0294134915">
        <ele>81.37</ele>
        <time>2012-09-01T07:14:53Z</time>
      </trkpt>
      <trkpt lat="58.6681217328" lon="16.0296153277">
        <ele>80.41</ele>
        <time>2012-09-01T07:14:57Z</time>
      </trkpt>
      <trkpt lat="58.6681242473" lon="16.0298389569">
        <ele>78</ele>
        <time>2012-09-01T07:15:03Z</time>
      </trkpt>
      <trkpt lat="58.6680739559" lon="16.030065855">
        <ele>77.04</ele>
        <time>2012-09-01T07:15:08Z</time>
      </trkpt>
      <trkpt lat="58.6680737883" lon="16.0306001175">
        <ele>77.04</ele>
        <time>2012-09-01T07:15:19Z</time>
      </trkpt>
      <trkpt lat="58.6681386642" lon="16.0308409296">
        <ele>77.52</ele>
        <time>2012-09-01T07:15:25Z</time>
      </trkpt>
      <trkpt lat="58.6682571005" lon="16.031271508">
        <ele>77.04</ele>
        <time>2012-09-01T07:15:35Z</time>
      </trkpt>
      <trkpt lat="58.6682270933" lon="16.0314424988">
        <ele>77.52</ele>
        <time>2012-09-01T07:15:39Z</time>
      </trkpt>
      <trkpt lat="58.6681853514" lon="16.0315616895">
        <ele>77.52</ele>
        <time>2012-09-01T07:15:41Z</time>
      </trkpt>
      <trkpt lat="58.6681565177" lon="16.0317830555">
        <ele>77.52</ele>
        <time>2012-09-01T07:15:45Z</time>
      </trkpt>
      <trkpt lat="58.6680451222" lon="16.0322942678">
        <ele>77.52</ele>
        <time>2012-09-01T07:15:58Z</time>
      </trkpt>
      <trkpt lat="58.668020647" lon="16.032380769">
        <ele>77.52</ele>
        <time>2012-09-01T07:15:59Z</time>
      </trkpt>
      <trkpt lat="58.6679594591" lon="16.0326513369">
        <ele>77.52</ele>
        <time>2012-09-01T07:16:04Z</time>
      </trkpt>
      <trkpt lat="58.6679753009" lon="16.0328838509">
        <ele>77.52</ele>
        <time>2012-09-01T07:16:08Z</time>
      </trkpt>
      <trkpt lat="58.6679546814" lon="16.0329870321">
        <ele>77.04</ele>
        <time>2012-09-01T07:16:10Z</time>
      </trkpt>
      <trkpt lat="58.6679519992" lon="16.0332069732">
        <ele>77.52</ele>
        <time>2012-09-01T07:16:15Z</time>
      </trkpt>
      <trkpt lat="58.6679059826" lon="16.033458095">
        <ele>77.52</ele>
        <time>2012-09-01T07:16:21Z</time>
      </trkpt>
      <trkpt lat="58.6678717006" lon="16.033666553">
        <ele>77.04</ele>
        <time>2012-09-01T07:16:27Z</time>
      </trkpt>
      <trkpt lat="58.6678230017" lon="16.0337085463">
        <ele>77.04</ele>
        <time>2012-09-01T07:16:29Z</time>
      </trkpt>
      <trkpt lat="58.6675878894" lon="16.0341086984">
        <ele>78.48</ele>
        <time>2012-09-01T07:16:39Z</time>
      </trkpt>
      <trkpt lat="58.6675506737" lon="16.0343013983">
        <ele>78</ele>
        <time>2012-09-01T07:16:43Z</time>
      </trkpt>
      <trkpt lat="58.6675341614" lon="16.0344366822">
        <ele>77.04</ele>
        <time>2012-09-01T07:16:46Z</time>
      </trkpt>
      <trkpt lat="58.6675298028" lon="16.0345718823">
        <ele>76.56</ele>
        <time>2012-09-01T07:16:49Z</time>
      </trkpt>
      <trkpt lat="58.6675093509" lon="16.0347836092">
        <ele>76.56</ele>
        <time>2012-09-01T07:16:55Z</time>
      </trkpt>
      <trkpt lat="58.6674832832" lon="16.0350229964">
        <ele>76.56</ele>
        <time>2012-09-01T07:16:59Z</time>
      </trkpt>
      <trkpt lat="58.6674286332" lon="16.0351770557">
        <ele>77.04</ele>
        <time>2012-09-01T07:17:02Z</time>
      </trkpt>
      <trkpt lat="58.6673692055" lon="16.0354200471">
        <ele>76.56</ele>
        <time>2012-09-01T07:17:07Z</time>
      </trkpt>
      <trkpt lat="58.6673013959" lon="16.0357434209">
        <ele>77.52</ele>
        <time>2012-09-01T07:17:13Z</time>
      </trkpt>
      <trkpt lat="58.6673412099" lon="16.0358599294">
        <ele>78</ele>
        <time>2012-09-01T07:17:18Z</time>
      </trkpt>
      <trkpt lat="58.6674260348" lon="16.0358671378">
        <ele>79.93</ele>
        <time>2012-09-01T07:17:23Z</time>
      </trkpt>
      <trkpt lat="58.66756442" lon="16.0359894298">
        <ele>83.29</ele>
        <time>2012-09-01T07:17:31Z</time>
      </trkpt>
      <trkpt lat="58.6676253565" lon="16.0360832233">
        <ele>84.25</ele>
        <time>2012-09-01T07:17:34Z</time>
      </trkpt>
      <trkpt lat="58.6677818466" lon="16.0363611672">
        <ele>86.18</ele>
        <time>2012-09-01T07:17:43Z</time>
      </trkpt>
      <trkpt lat="58.6678391788" lon="16.0364666115">
        <ele>86.66</ele>
        <time>2012-09-01T07:17:47Z</time>
      </trkpt>
      <trkpt lat="58.6679384205" lon="16.0365568008">
        <ele>87.62</ele>
        <time>2012-09-01T07:17:52Z</time>
      </trkpt>
      <trkpt lat="58.6681329645" lon="16.0367242713">
        <ele>87.14</ele>
        <time>2012-09-01T07:18:00Z</time>
      </trkpt>
      <trkpt lat="58.6684103217" lon="16.0365931783">
        <ele>88.1</ele>
        <time>2012-09-01T07:18:11Z</time>
      </trkpt>
      <trkpt lat="58.6685079709" lon="16.0365649313">
        <ele>86.18</ele>
        <time>2012-09-01T07:18:16Z</time>
      </trkpt>
      <trkpt lat="58.6686221324" lon="16.0364671145">
        <ele>83.77</ele>
        <time>2012-09-01T07:18:22Z</time>
      </trkpt>
      <trkpt lat="58.6687592603" lon="16.0363111272">
        <ele>82.33</ele>
        <time>2012-09-01T07:18:29Z</time>
      </trkpt>
      <trkpt lat="58.668830758" lon="16.036395533">
        <ele>78.97</ele>
        <time>2012-09-01T07:18:37Z</time>
      </trkpt>
      <trkpt lat="58.6688349489" lon="16.0364116263">
        <ele>78.48</ele>
        <time>2012-09-01T07:18:38Z</time>
      </trkpt>
      <trkpt lat="58.6688770261" lon="16.0364865605">
        <ele>77.04</ele>
        <time>2012-09-01T07:18:41Z</time>
      </trkpt>
      <trkpt lat="58.6688937061" lon="16.0365029052">
        <ele>77.04</ele>
        <time>2012-09-01T07:18:42Z</time>
      </trkpt>
      <trkpt lat="58.6689959653" lon="16.0366119538">
        <ele>78</ele>
        <time>2012-09-01T07:18:49Z</time>
      </trkpt>
      <trkpt lat="58.6693054251" lon="16.036444651">
        <ele>77.04</ele>
        <time>2012-09-01T07:18:58Z</time>
      </trkpt>
      <trkpt lat="58.6694426369" lon="16.0363708902">
        <ele>77.04</ele>
        <time>2012-09-01T07:19:03Z</time>
      </trkpt>
      <trkpt lat="58.6697844509" lon="16.0362936929">
        <ele>78.48</ele>
        <time>2012-09-01T07:19:15Z</time>
      </trkpt>
      <trkpt lat="58.6699142866" lon="16.0363015719">
        <ele>79.93</ele>
        <time>2012-09-01T07:19:20Z</time>
      </trkpt>
      <trkpt lat="58.6701131053" lon="16.0366316512">
        <ele>83.29</ele>
        <time>2012-09-01T07:19:32Z</time>
      </trkpt>
      <trkpt lat="58.6701821722" lon="16.0367858782">
        <ele>84.25</ele>
        <time>2012-09-01T07:19:36Z</time>
      </trkpt>
      <trkpt lat="58.6702961661" lon="16.0369841941">
        <ele>85.69</ele>
        <time>2012-09-01T07:19:42Z</time>
      </trkpt>
      <trkpt lat="58.6705465335" lon="16.0373651516">
        <ele>85.69</ele>
        <time>2012-09-01T07:19:55Z</time>
      </trkpt>
      <trkpt lat="58.6707915366" lon="16.0376964044">
        <ele>85.69</ele>
        <time>2012-09-01T07:20:07Z</time>
      </trkpt>
      <trkpt lat="58.6708699912" lon="16.0377971549">
        <ele>85.21</ele>
        <time>2012-09-01T07:20:11Z</time>
      </trkpt>
      <trkpt lat="58.6710185185" lon="16.0379169323">
        <ele>84.73</ele>
        <time>2012-09-01T07:20:18Z</time>
      </trkpt>
      <trkpt lat="58.6710605957" lon="16.03798558">
        <ele>84.73</ele>
        <time>2012-09-01T07:20:21Z</time>
      </trkpt>
      <trkpt lat="58.6711573228" lon="16.0381288268">
        <ele>85.69</ele>
        <time>2012-09-01T07:20:26Z</time>
      </trkpt>
      <trkpt lat="58.6713755038" lon="16.0384790227">
        <ele>86.18</ele>
        <time>2012-09-01T07:20:38Z</time>
      </trkpt>
      <trkpt lat="58.6715329997" lon="16.0389461461">
        <ele>89.54</ele>
        <time>2012-09-01T07:20:50Z</time>
      </trkpt>
      <trkpt lat="58.6716075148" lon="16.0392383393">
        <ele>92.9</ele>
        <time>2012-09-01T07:20:58Z</time>
      </trkpt>
      <trkpt lat="58.6716152262" lon="16.0392652452">
        <ele>93.39</ele>
        <time>2012-09-01T07:20:59Z</time>
      </trkpt>
      <trkpt lat="58.6716452334" lon="16.039423747">
        <ele>94.83</ele>
        <time>2012-09-01T07:21:04Z</time>
      </trkpt>
      <trkpt lat="58.6718572956" lon="16.0394356493">
        <ele>92.42</ele>
        <time>2012-09-01T07:21:14Z</time>
      </trkpt>
      <trkpt lat="58.6720258556" lon="16.0393684264">
        <ele>92.42</ele>
        <time>2012-09-01T07:21:21Z</time>
      </trkpt>
      <trkpt lat="58.6721311323" lon="16.0393116809">
        <ele>93.87</ele>
        <time>2012-09-01T07:21:26Z</time>
      </trkpt>
      <trkpt lat="58.6721892189" lon="16.0392946657">
        <ele>93.87</ele>
        <time>2012-09-01T07:21:29Z</time>
      </trkpt>
      <trkpt lat="58.6722394265" lon="16.0393167939">
        <ele>93.87</ele>
        <time>2012-09-01T07:21:31Z</time>
      </trkpt>
      <trkpt lat="58.6725174543" lon="16.0392336454">
        <ele>92.42</ele>
        <time>2012-09-01T07:21:43Z</time>
      </trkpt>
      <trkpt lat="58.6726308614" lon="16.039271364">
        <ele>90.98</ele>
        <time>2012-09-01T07:21:47Z</time>
      </trkpt>
      <trkpt lat="58.6729449313" lon="16.039311178">
        <ele>88.58</ele>
        <time>2012-09-01T07:21:57Z</time>
      </trkpt>
      <trkpt lat="58.6730440892" lon="16.0393923987">
        <ele>86.66</ele>
        <time>2012-09-01T07:22:02Z</time>
      </trkpt>
      <trkpt lat="58.6731106415" lon="16.0395650659">
        <ele>85.69</ele>
        <time>2012-09-01T07:22:08Z</time>
      </trkpt>
      <trkpt lat="58.6732691433" lon="16.0395971686">
        <ele>81.37</ele>
        <time>2012-09-01T07:22:14Z</time>
      </trkpt>
      <trkpt lat="58.6734604184" lon="16.0396418441">
        <ele>79.45</ele>
        <time>2012-09-01T07:22:21Z</time>
      </trkpt>
      <trkpt lat="58.6735154875" lon="16.0396526568">
        <ele>79.45</ele>
        <time>2012-09-01T07:22:23Z</time>
      </trkpt>
      <trkpt lat="58.6737909168" lon="16.039420059">
        <ele>78.48</ele>
        <time>2012-09-01T07:22:33Z</time>
      </trkpt>
      <trkpt lat="58.6739381868" lon="16.0395379085">
        <ele>79.93</ele>
        <time>2012-09-01T07:22:41Z</time>
      </trkpt>
      <trkpt lat="58.6742402706" lon="16.0398935527">
        <ele>79.45</ele>
        <time>2012-09-01T07:22:53Z</time>
      </trkpt>
      <trkpt lat="58.674535146" lon="16.0402279068">
        <ele>79.93</ele>
        <time>2012-09-01T07:23:05Z</time>
      </trkpt>
      <trkpt lat="58.6747994274" lon="16.0406272206">
        <ele>80.41</ele>
        <time>2012-09-01T07:23:17Z</time>
      </trkpt>
      <trkpt lat="58.6749558337" lon="16.0411160532">
        <ele>81.37</ele>
        <time>2012-09-01T07:23:28Z</time>
      </trkpt>
      <trkpt lat="58.67512431" lon="16.0415823385">
        <ele>84.73</ele>
        <time>2012-09-01T07:23:39Z</time>
      </trkpt>
      <trkpt lat="58.6753323488" lon="16.0418593604">
        <ele>87.62</ele>
        <time>2012-09-01T07:23:49Z</time>
      </trkpt>
      <trkpt lat="58.6755692214" lon="16.0420544911">
        <ele>88.58</ele>
        <time>2012-09-01T07:23:59Z</time>
      </trkpt>
      <trkpt lat="58.6758599896" lon="16.0422409046">
        <ele>88.58</ele>
        <time>2012-09-01T07:24:11Z</time>
      </trkpt>
      <trkpt lat="58.6760552879" lon="16.0424448363">
        <ele>88.1</ele>
        <time>2012-09-01T07:24:20Z</time>
      </trkpt>
      <trkpt lat="58.6762613151" lon="16.0427169967">
        <ele>88.58</ele>
        <time>2012-09-01T07:24:30Z</time>
      </trkpt>
      <trkpt lat="58.6765762232" lon="16.0432869662">
        <ele>88.1</ele>
        <time>2012-09-01T07:24:43Z</time>
      </trkpt>
      <trkpt lat="58.6768594477" lon="16.043761801">
        <ele>90.02</ele>
        <time>2012-09-01T07:24:55Z</time>
      </trkpt>
      <trkpt lat="58.6771121621" lon="16.0438990127">
        <ele>90.02</ele>
        <time>2012-09-01T07:25:04Z</time>
      </trkpt>
      <trkpt lat="58.6774184369" lon="16.0439162795">
        <ele>89.06</ele>
        <time>2012-09-01T07:25:15Z</time>
      </trkpt>
      <trkpt lat="58.6777278967" lon="16.0441462789">
        <ele>89.06</ele>
        <time>2012-09-01T07:25:26Z</time>
      </trkpt>
      <trkpt lat="58.6779858917" lon="16.0444078781">
        <ele>90.02</ele>
        <time>2012-09-01T07:25:36Z</time>
      </trkpt>
      <trkpt lat="58.6780592334" lon="16.0445015039">
        <ele>90.02</ele>
        <time>2012-09-01T07:25:39Z</time>
      </trkpt>
      <trkpt lat="58.6781794298" lon="16.0447730776">
        <ele>90.98</ele>
        <time>2012-09-01T07:25:46Z</time>
      </trkpt>
      <trkpt lat="58.6782360077" lon="16.045085974">
        <ele>91.46</ele>
        <time>2012-09-01T07:25:52Z</time>
      </trkpt>
      <trkpt lat="58.6783433799" lon="16.0454199091">
        <ele>92.42</ele>
        <time>2012-09-01T07:26:00Z</time>
      </trkpt>
      <trkpt lat="58.67847858" lon="16.0458596237">
        <ele>92.9</ele>
        <time>2012-09-01T07:26:10Z</time>
      </trkpt>
      <trkpt lat="58.6785686016" lon="16.0460238252">
        <ele>92.9</ele>
        <time>2012-09-01T07:26:14Z</time>
      </trkpt>
      <trkpt lat="58.6786230002" lon="16.046148967">
        <ele>93.39</ele>
        <time>2012-09-01T07:26:18Z</time>
      </trkpt>
      <trkpt lat="58.6789207254" lon="16.0465388093">
        <ele>91.94</ele>
        <time>2012-09-01T07:26:29Z</time>
      </trkpt>
      <trkpt lat="58.6791243218" lon="16.0469724052">
        <ele>92.42</ele>
        <time>2012-09-01T07:26:40Z</time>
      </trkpt>
      <trkpt lat="58.6792901158" lon="16.047312459">
        <ele>94.83</ele>
        <time>2012-09-01T07:26:50Z</time>
      </trkpt>
      <trkpt lat="58.6796578299" lon="16.0477189813">
        <ele>92.42</ele>
        <time>2012-09-01T07:27:03Z</time>
      </trkpt>
      <trkpt lat="58.6799411383" lon="16.0479758866">
        <ele>91.46</ele>
        <time>2012-09-01T07:27:14Z</time>
      </trkpt>
      <trkpt lat="58.6802581418" lon="16.048246203">
        <ele>92.42</ele>
        <time>2012-09-01T07:27:26Z</time>
      </trkpt>
      <trkpt lat="58.6805819348" lon="16.0488013364">
        <ele>94.35</ele>
        <time>2012-09-01T07:27:40Z</time>
      </trkpt>
      <trkpt lat="58.6806178931" lon="16.0489004944">
        <ele>93.87</ele>
        <time>2012-09-01T07:27:43Z</time>
      </trkpt>
      <trkpt lat="58.68072493" lon="16.0492319986">
        <ele>96.27</ele>
        <time>2012-09-01T07:27:52Z</time>
      </trkpt>
      <trkpt lat="58.6810057238" lon="16.0496894829">
        <ele>97.23</ele>
        <time>2012-09-01T07:28:05Z</time>
      </trkpt>
      <trkpt lat="58.681261288" lon="16.0500624776">
        <ele>97.71</ele>
        <time>2012-09-01T07:28:16Z</time>
      </trkpt>
      <trkpt lat="58.6814959813" lon="16.0504379869">
        <ele>95.31</ele>
        <time>2012-09-01T07:28:26Z</time>
      </trkpt>
      <trkpt lat="58.6815909483" lon="16.0507036932">
        <ele>95.31</ele>
        <time>2012-09-01T07:28:31Z</time>
      </trkpt>
      <trkpt lat="58.6817350332" lon="16.0513644386">
        <ele>96.75</ele>
        <time>2012-09-01T07:28:43Z</time>
      </trkpt>
      <trkpt lat="58.681775853" lon="16.0516881477">
        <ele>95.79</ele>
        <time>2012-09-01T07:28:49Z</time>
      </trkpt>
      <trkpt lat="58.6816986557" lon="16.0518547799">
        <ele>95.79</ele>
        <time>2012-09-01T07:28:54Z</time>
      </trkpt>
      <trkpt lat="58.6815099791" lon="16.0520639084">
        <ele>98.67</ele>
        <time>2012-09-01T07:29:03Z</time>
      </trkpt>
      <trkpt lat="58.6814019363" lon="16.0521777347">
        <ele>100.11</ele>
        <time>2012-09-01T07:29:07Z</time>
      </trkpt>
      <trkpt lat="58.6813264154" lon="16.0522606317">
        <ele>101.08</ele>
        <time>2012-09-01T07:29:12Z</time>
      </trkpt>
      <trkpt lat="58.681115862" lon="16.0526201315">
        <ele>103.48</ele>
        <time>2012-09-01T07:29:22Z</time>
      </trkpt>
      <trkpt lat="58.6810531653" lon="16.0527534038">
        <ele>104.92</ele>
        <time>2012-09-01T07:29:26Z</time>
      </trkpt>
      <trkpt lat="58.6809825897" lon="16.0529180244">
        <ele>106.84</ele>
        <time>2012-09-01T07:29:31Z</time>
      </trkpt>
      <trkpt lat="58.6810476333" lon="16.0532040149">
        <ele>108.29</ele>
        <time>2012-09-01T07:29:37Z</time>
      </trkpt>
      <trkpt lat="58.6811701767" lon="16.053636102">
        <ele>111.65</ele>
        <time>2012-09-01T07:29:48Z</time>
      </trkpt>
      <trkpt lat="58.6812286824" lon="16.0537145566">
        <ele>113.09</ele>
        <time>2012-09-01T07:29:51Z</time>
      </trkpt>
      <trkpt lat="58.6812498886" lon="16.0537456535">
        <ele>113.09</ele>
        <time>2012-09-01T07:29:52Z</time>
      </trkpt>
      <trkpt lat="58.6813323665" lon="16.0538044944">
        <ele>112.13</ele>
        <time>2012-09-01T07:29:56Z</time>
      </trkpt>
      <trkpt lat="58.6815847456" lon="16.0540265311">
        <ele>112.61</ele>
        <time>2012-09-01T07:30:07Z</time>
      </trkpt>
      <trkpt lat="58.6816022638" lon="16.0540406965">
        <ele>112.61</ele>
        <time>2012-09-01T07:30:08Z</time>
      </trkpt>
      <trkpt lat="58.6817955505" lon="16.0543500725">
        <ele>113.09</ele>
        <time>2012-09-01T07:30:18Z</time>
      </trkpt>
      <trkpt lat="58.6820247956" lon="16.0547327064">
        <ele>113.57</ele>
        <time>2012-09-01T07:30:30Z</time>
      </trkpt>
      <trkpt lat="58.6823151447" lon="16.0551448446">
        <ele>112.13</ele>
        <time>2012-09-01T07:30:43Z</time>
      </trkpt>
      <trkpt lat="58.682389576" lon="16.0553811304">
        <ele>111.65</ele>
        <time>2012-09-01T07:30:48Z</time>
      </trkpt>
      <trkpt lat="58.6824445613" lon="16.0556514468">
        <ele>111.17</ele>
        <time>2012-09-01T07:30:53Z</time>
      </trkpt>
      <trkpt lat="58.6825292185" lon="16.056087222">
        <ele>112.13</ele>
        <time>2012-09-01T07:31:02Z</time>
      </trkpt>
      <trkpt lat="58.6825574655" lon="16.0562994517">
        <ele>113.57</ele>
        <time>2012-09-01T07:31:08Z</time>
      </trkpt>
      <trkpt lat="58.682549838" lon="16.0566852707">
        <ele>115.01</ele>
        <time>2012-09-01T07:31:15Z</time>
      </trkpt>
      <trkpt lat="58.6824922543" lon="16.0571957286">
        <ele>117.42</ele>
        <time>2012-09-01T07:31:25Z</time>
      </trkpt>
      <trkpt lat="58.68246275" lon="16.0574072041">
        <ele>117.9</ele>
        <time>2012-09-01T07:31:30Z</time>
      </trkpt>
      <trkpt lat="58.6824510153" lon="16.0575085413">
        <ele>118.38</ele>
        <time>2012-09-01T07:31:32Z</time>
      </trkpt>
      <trkpt lat="58.6824448127" lon="16.0577025823">
        <ele>119.34</ele>
        <time>2012-09-01T07:31:36Z</time>
      </trkpt>
      <trkpt lat="58.6824498419" lon="16.0579318274">
        <ele>121.26</ele>
        <time>2012-09-01T07:31:41Z</time>
      </trkpt>
      <trkpt lat="58.6824210919" lon="16.0582458973">
        <ele>121.74</ele>
        <time>2012-09-01T07:31:47Z</time>
      </trkpt>
      <trkpt lat="58.6824158113" lon="16.0584579594">
        <ele>121.74</ele>
        <time>2012-09-01T07:31:51Z</time>
      </trkpt>
      <trkpt lat="58.6824061722" lon="16.0587903019">
        <ele>120.78</ele>
        <time>2012-09-01T07:31:57Z</time>
      </trkpt>
      <trkpt lat="58.682404412" lon="16.0593139194">
        <ele>119.82</ele>
        <time>2012-09-01T07:32:07Z</time>
      </trkpt>
      <trkpt lat="58.6823899951" lon="16.0598848946">
        <ele>120.78</ele>
        <time>2012-09-01T07:32:18Z</time>
      </trkpt>
      <trkpt lat="58.6823739018" lon="16.0604649223">
        <ele>119.34</ele>
        <time>2012-09-01T07:32:29Z</time>
      </trkpt>
      <trkpt lat="58.6823724769" lon="16.0608274397">
        <ele>118.86</ele>
        <time>2012-09-01T07:32:36Z</time>
      </trkpt>
      <trkpt lat="58.6823540367" lon="16.0611039586">
        <ele>118.86</ele>
        <time>2012-09-01T07:32:42Z</time>
      </trkpt>
      <trkpt lat="58.6819771864" lon="16.0611992609">
        <ele>116.46</ele>
        <time>2012-09-01T07:32:56Z</time>
      </trkpt>
      <trkpt lat="58.6818284914" lon="16.0612790566">
        <ele>116.46</ele>
        <time>2012-09-01T07:33:02Z</time>
      </trkpt>
      <trkpt lat="58.6817337759" lon="16.0613264143">
        <ele>116.46</ele>
        <time>2012-09-01T07:33:06Z</time>
      </trkpt>
      <trkpt lat="58.6816025991" lon="16.0613258276">
        <ele>116.46</ele>
        <time>2012-09-01T07:33:11Z</time>
      </trkpt>
      <trkpt lat="58.6815431714" lon="16.0612361412">
        <ele>115.98</ele>
        <time>2012-09-01T07:33:15Z</time>
      </trkpt>
      <trkpt lat="58.6813744437" lon="16.0608798265">
        <ele>117.42</ele>
        <time>2012-09-01T07:33:24Z</time>
      </trkpt>
      <trkpt lat="58.6813539919" lon="16.0608319659">
        <ele>117.42</ele>
        <time>2012-09-01T07:33:25Z</time>
      </trkpt>
      <trkpt lat="58.6810912192" lon="16.0605617333">
        <ele>117.9</ele>
        <time>2012-09-01T07:33:35Z</time>
      </trkpt>
      <trkpt lat="58.6810374074" lon="16.0605064966">
        <ele>117.9</ele>
        <time>2012-09-01T07:33:37Z</time>
      </trkpt>
      <trkpt lat="58.6807636544" lon="16.0604707897">
        <ele>117.9</ele>
        <time>2012-09-01T07:33:48Z</time>
      </trkpt>
      <trkpt lat="58.6805662606" lon="16.0605034791">
        <ele>118.38</ele>
        <time>2012-09-01T07:33:55Z</time>
      </trkpt>
      <trkpt lat="58.6804400291" lon="16.0606171377">
        <ele>118.86</ele>
        <time>2012-09-01T07:34:01Z</time>
      </trkpt>
      <trkpt lat="58.6803846247" lon="16.060715206">
        <ele>119.34</ele>
        <time>2012-09-01T07:34:04Z</time>
      </trkpt>
      <trkpt lat="58.6802050844" lon="16.0609017033">
        <ele>119.82</ele>
        <time>2012-09-01T07:34:10Z</time>
      </trkpt>
      <trkpt lat="58.6800332554" lon="16.0612347163">
        <ele>120.78</ele>
        <time>2012-09-01T07:34:19Z</time>
      </trkpt>
      <trkpt lat="58.679951448" lon="16.0613495484">
        <ele>120.78</ele>
        <time>2012-09-01T07:34:23Z</time>
      </trkpt>
      <trkpt lat="58.6797961313" lon="16.0613990854">
        <ele>121.26</ele>
        <time>2012-09-01T07:34:29Z</time>
      </trkpt>
      <trkpt lat="58.6795926187" lon="16.0615377221">
        <ele>119.82</ele>
        <time>2012-09-01T07:34:36Z</time>
      </trkpt>
      <trkpt lat="58.6795147508" lon="16.061664205">
        <ele>118.86</ele>
        <time>2012-09-01T07:34:40Z</time>
      </trkpt>
      <trkpt lat="58.6792560853" lon="16.0618406441">
        <ele>118.38</ele>
        <time>2012-09-01T07:34:51Z</time>
      </trkpt>
      <trkpt lat="58.6789140198" lon="16.0619056039">
        <ele>118.38</ele>
        <time>2012-09-01T07:35:02Z</time>
      </trkpt>
      <trkpt lat="58.6786597129" lon="16.061978275">
        <ele>117.9</ele>
        <time>2012-09-01T07:35:11Z</time>
      </trkpt>
      <trkpt lat="58.6785166338" lon="16.061986573">
        <ele>117.9</ele>
        <time>2012-09-01T07:35:16Z</time>
      </trkpt>
      <trkpt lat="58.6783937551" lon="16.0620937776">
        <ele>117.9</ele>
        <time>2012-09-01T07:35:21Z</time>
      </trkpt>
      <trkpt lat="58.67812193" lon="16.0620993935">
        <ele>119.34</ele>
        <time>2012-09-01T07:35:31Z</time>
      </trkpt>
      <trkpt lat="58.6780836247" lon="16.0619302467">
        <ele>119.82</ele>
        <time>2012-09-01T07:35:35Z</time>
      </trkpt>
      <trkpt lat="58.6780121271" lon="16.0613943078">
        <ele>120.3</ele>
        <time>2012-09-01T07:35:46Z</time>
      </trkpt>
      <trkpt lat="58.6779328343" lon="16.060954174">
        <ele>120.78</ele>
        <time>2012-09-01T07:35:54Z</time>
      </trkpt>
      <trkpt lat="58.6778357718" lon="16.060408093">
        <ele>121.26</ele>
        <time>2012-09-01T07:36:05Z</time>
      </trkpt>
      <trkpt lat="58.6777741648" lon="16.0599486809">
        <ele>122.22</ele>
        <time>2012-09-01T07:36:14Z</time>
      </trkpt>
      <trkpt lat="58.6777369492" lon="16.0596265644">
        <ele>122.71</ele>
        <time>2012-09-01T07:36:21Z</time>
      </trkpt>
      <trkpt lat="58.6776779406" lon="16.0593071301">
        <ele>122.71</ele>
        <time>2012-09-01T07:36:28Z</time>
      </trkpt>
      <trkpt lat="58.6776366178" lon="16.0591189563">
        <ele>122.71</ele>
        <time>2012-09-01T07:36:32Z</time>
      </trkpt>
      <trkpt lat="58.6775789503" lon="16.0587909725">
        <ele>121.26</ele>
        <time>2012-09-01T07:36:39Z</time>
      </trkpt>
      <trkpt lat="58.6775589176" lon="16.0586108454">
        <ele>120.78</ele>
        <time>2012-09-01T07:36:42Z</time>
      </trkpt>
      <trkpt lat="58.6776288226" lon="16.0581243597">
        <ele>118.38</ele>
        <time>2012-09-01T07:36:51Z</time>
      </trkpt>
      <trkpt lat="58.6776934471" lon="16.0577926878">
        <ele>120.3</ele>
        <time>2012-09-01T07:36:59Z</time>
      </trkpt>
      <trkpt lat="58.6777733266" lon="16.0573004186">
        <ele>121.74</ele>
        <time>2012-09-01T07:37:10Z</time>
      </trkpt>
      <trkpt lat="58.6778125539" lon="16.0571027733">
        <ele>122.22</ele>
        <time>2012-09-01T07:37:14Z</time>
      </trkpt>
      <trkpt lat="58.6778836325" lon="16.0567823332">
        <ele>121.26</ele>
        <time>2012-09-01T07:37:20Z</time>
      </trkpt>
      <trkpt lat="58.6779467482" lon="16.0566038825">
        <ele>120.78</ele>
        <time>2012-09-01T07:37:24Z</time>
      </trkpt>
      <trkpt lat="58.6781403702" lon="16.05616224">
        <ele>121.74</ele>
        <time>2012-09-01T07:37:35Z</time>
      </trkpt>
      <trkpt lat="58.678152943" lon="16.0561207496">
        <ele>122.22</ele>
        <time>2012-09-01T07:37:36Z</time>
      </trkpt>
      <trkpt lat="58.6781738978" lon="16.056048749">
        <ele>121.74</ele>
        <time>2012-09-01T07:37:38Z</time>
      </trkpt>
      <trkpt lat="58.6783319805" lon="16.0556934401">
        <ele>121.74</ele>
        <time>2012-09-01T07:37:46Z</time>
      </trkpt>
      <trkpt lat="58.6784442142" lon="16.0553635284">
        <ele>122.71</ele>
        <time>2012-09-01T07:37:54Z</time>
      </trkpt>
      <trkpt lat="58.6784479022" lon="16.0550218821">
        <ele>122.71</ele>
        <time>2012-09-01T07:38:01Z</time>
      </trkpt>
      <trkpt lat="58.6784885544" lon="16.0547337122">
        <ele>123.67</ele>
        <time>2012-09-01T07:38:08Z</time>
      </trkpt>
      <trkpt lat="58.6785822641" lon="16.0543885455">
        <ele>124.15</ele>
        <time>2012-09-01T07:38:16Z</time>
      </trkpt>
      <trkpt lat="58.6786553543" lon="16.0541324783">
        <ele>123.67</ele>
        <time>2012-09-01T07:38:23Z</time>
      </trkpt>
      <trkpt lat="58.6788936518" lon="16.0536677856">
        <ele>124.15</ele>
        <time>2012-09-01T07:38:35Z</time>
      </trkpt>
      <trkpt lat="58.6791083962" lon="16.0532377101">
        <ele>125.11</ele>
        <time>2012-09-01T07:38:45Z</time>
      </trkpt>
      <trkpt lat="58.6792102363" lon="16.0530741792">
        <ele>125.11</ele>
        <time>2012-09-01T07:38:50Z</time>
      </trkpt>
      <trkpt lat="58.6793609429" lon="16.0528399888">
        <ele>125.59</ele>
        <time>2012-09-01T07:38:57Z</time>
      </trkpt>
      <trkpt lat="58.6794205382" lon="16.0526321176">
        <ele>125.11</ele>
        <time>2012-09-01T07:39:02Z</time>
      </trkpt>
      <trkpt lat="58.6793344561" lon="16.0522228293">
        <ele>125.11</ele>
        <time>2012-09-01T07:39:11Z</time>
      </trkpt>
      <trkpt lat="58.6793223023" lon="16.0520564485">
        <ele>124.15</ele>
        <time>2012-09-01T07:39:14Z</time>
      </trkpt>
      <trkpt lat="58.6793047003" lon="16.051860312">
        <ele>123.67</ele>
        <time>2012-09-01T07:39:18Z</time>
      </trkpt>
      <trkpt lat="58.6792820692" lon="16.051667193">
        <ele>123.67</ele>
        <time>2012-09-01T07:39:22Z</time>
      </trkpt>
      <trkpt lat="58.6792456079" lon="16.0514254589">
        <ele>124.15</ele>
        <time>2012-09-01T07:39:27Z</time>
      </trkpt>
      <trkpt lat="58.6793235596" lon="16.0510893445">
        <ele>123.67</ele>
        <time>2012-09-01T07:39:34Z</time>
      </trkpt>
      <trkpt lat="58.6793403234" lon="16.0507446807">
        <ele>123.67</ele>
        <time>2012-09-01T07:39:40Z</time>
      </trkpt>
      <trkpt lat="58.6793660559" lon="16.0506301001">
        <ele>123.19</ele>
        <time>2012-09-01T07:39:43Z</time>
      </trkpt>
      <trkpt lat="58.6793739349" lon="16.0500939097">
        <ele>122.22</ele>
        <time>2012-09-01T07:39:52Z</time>
      </trkpt>
      <trkpt lat="58.6792921275" lon="16.0497907363">
        <ele>120.3</ele>
        <time>2012-09-01T07:39:58Z</time>
      </trkpt>
      <trkpt lat="58.6792073864" lon="16.0497303866">
        <ele>120.78</ele>
        <time>2012-09-01T07:40:02Z</time>
      </trkpt>
      <trkpt lat="58.6789583601" lon="16.0498349089">
        <ele>122.71</ele>
        <time>2012-09-01T07:40:12Z</time>
      </trkpt>
      <trkpt lat="58.678813437" lon="16.049935827">
        <ele>124.15</ele>
        <time>2012-09-01T07:40:18Z</time>
      </trkpt>
      <trkpt lat="58.6787152849" lon="16.0499509145">
        <ele>124.15</ele>
        <time>2012-09-01T07:40:22Z</time>
      </trkpt>
      <trkpt lat="58.6784409452" lon="16.0500739608">
        <ele>124.15</ele>
        <time>2012-09-01T07:40:33Z</time>
      </trkpt>
      <trkpt lat="58.6782155558" lon="16.0500030499">
        <ele>124.63</ele>
        <time>2012-09-01T07:40:43Z</time>
      </trkpt>
      <trkpt lat="58.6781764124" lon="16.0499723721">
        <ele>124.63</ele>
        <time>2012-09-01T07:40:45Z</time>
      </trkpt>
      <trkpt lat="58.6781009752" lon="16.0499016289">
        <ele>122.71</ele>
        <time>2012-09-01T07:40:49Z</time>
      </trkpt>
      <trkpt lat="58.6780228559" lon="16.0499065742">
        <ele>121.74</ele>
        <time>2012-09-01T07:40:52Z</time>
      </trkpt>
      <trkpt lat="58.6779161543" lon="16.04994094">
        <ele>119.82</ele>
        <time>2012-09-01T07:40:56Z</time>
      </trkpt>
      <trkpt lat="58.677771315" lon="16.0498449672">
        <ele>117.42</ele>
        <time>2012-09-01T07:41:05Z</time>
      </trkpt>
      <trkpt lat="58.6777545512" lon="16.0497775767">
        <ele>116.46</ele>
        <time>2012-09-01T07:41:08Z</time>
      </trkpt>
      <trkpt lat="58.6777132284" lon="16.0496135429">
        <ele>115.01</ele>
        <time>2012-09-01T07:41:12Z</time>
      </trkpt>
      <trkpt lat="58.6776097957" lon="16.0492791887">
        <ele>113.09</ele>
        <time>2012-09-01T07:41:22Z</time>
      </trkpt>
      <trkpt lat="58.6775116436" lon="16.0491949506">
        <ele>111.65</ele>
        <time>2012-09-01T07:41:27Z</time>
      </trkpt>
      <trkpt lat="58.6774315964" lon="16.0491651949">
        <ele>110.69</ele>
        <time>2012-09-01T07:41:32Z</time>
      </trkpt>
      <trkpt lat="58.6772145052" lon="16.0489079542">
        <ele>111.17</ele>
        <time>2012-09-01T07:41:38Z</time>
      </trkpt>
      <trkpt lat="58.6771074682" lon="16.0485037789">
        <ele>112.61</ele>
        <time>2012-09-01T07:41:47Z</time>
      </trkpt>
      <trkpt lat="58.6770741083" lon="16.0482740309">
        <ele>112.61</ele>
        <time>2012-09-01T07:41:54Z</time>
      </trkpt>
      <trkpt lat="58.6769008543" lon="16.0479438677">
        <ele>113.09</ele>
        <time>2012-09-01T07:42:01Z</time>
      </trkpt>
      <trkpt lat="58.6768602021" lon="16.0478387587">
        <ele>113.57</ele>
        <time>2012-09-01T07:42:03Z</time>
      </trkpt>
      <trkpt lat="58.6767089926" lon="16.0474382713">
        <ele>112.13</ele>
        <time>2012-09-01T07:42:13Z</time>
      </trkpt>
      <trkpt lat="58.6766347289" lon="16.0473877285">
        <ele>111.65</ele>
        <time>2012-09-01T07:42:16Z</time>
      </trkpt>
      <trkpt lat="58.6764677614" lon="16.0471935198">
        <ele>110.69</ele>
        <time>2012-09-01T07:42:23Z</time>
      </trkpt>
      <trkpt lat="58.6763239279" lon="16.0470325034">
        <ele>109.25</ele>
        <time>2012-09-01T07:42:31Z</time>
      </trkpt>
      <trkpt lat="58.6762734689" lon="16.0468004085">
        <ele>108.77</ele>
        <time>2012-09-01T07:42:38Z</time>
      </trkpt>
      <trkpt lat="58.6761235166" lon="16.0466481932">
        <ele>106.84</ele>
        <time>2012-09-01T07:42:46Z</time>
      </trkpt>
      <trkpt lat="58.6761008855" lon="16.0466191918">
        <ele>106.84</ele>
        <time>2012-09-01T07:42:47Z</time>
      </trkpt>
      <trkpt lat="58.6760624126" lon="16.0465740971">
        <ele>106.36</ele>
        <time>2012-09-01T07:42:49Z</time>
      </trkpt>
      <trkpt lat="58.6759285536" lon="16.0463957302">
        <ele>105.4</ele>
        <time>2012-09-01T07:42:57Z</time>
      </trkpt>
      <trkpt lat="58.6758349277" lon="16.045996584">
        <ele>103.96</ele>
        <time>2012-09-01T07:43:06Z</time>
      </trkpt>
      <trkpt lat="58.6756627634" lon="16.0456376709">
        <ele>105.4</ele>
        <time>2012-09-01T07:43:17Z</time>
      </trkpt>
      <trkpt lat="58.67564952" lon="16.045610765">
        <ele>105.4</ele>
        <time>2012-09-01T07:43:18Z</time>
      </trkpt>
      <trkpt lat="58.6756148189" lon="16.0455530137">
        <ele>104.92</ele>
        <time>2012-09-01T07:43:20Z</time>
      </trkpt>
      <trkpt lat="58.6754363682" lon="16.0453767423">
        <ele>105.88</ele>
        <time>2012-09-01T07:43:28Z</time>
      </trkpt>
      <trkpt lat="58.6753621046" lon="16.045043394">
        <ele>104.44</ele>
        <time>2012-09-01T07:43:37Z</time>
      </trkpt>
      <trkpt lat="58.6753736716" lon="16.0448300745">
        <ele>103.48</ele>
        <time>2012-09-01T07:43:42Z</time>
      </trkpt>
      <trkpt lat="58.6753468495" lon="16.0446280707">
        <ele>102.04</ele>
        <time>2012-09-01T07:43:52Z</time>
      </trkpt>
      <trkpt lat="58.6753443349" lon="16.0446276516">
        <ele>101.56</ele>
        <time>2012-09-01T07:43:53Z</time>
      </trkpt>
      <trkpt lat="58.6753033474" lon="16.0442822333">
        <ele>104.92</ele>
        <time>2012-09-01T07:44:03Z</time>
      </trkpt>
      <trkpt lat="58.6751264893" lon="16.0441819858">
        <ele>105.4</ele>
        <time>2012-09-01T07:44:11Z</time>
      </trkpt>
      <trkpt lat="58.6750820652" lon="16.0441974085">
        <ele>104.92</ele>
        <time>2012-09-01T07:44:13Z</time>
      </trkpt>
      <trkpt lat="58.6748363916" lon="16.0443983227">
        <ele>103.96</ele>
        <time>2012-09-01T07:44:23Z</time>
      </trkpt>
      <trkpt lat="58.6746527441" lon="16.0444594268">
        <ele>105.4</ele>
        <time>2012-09-01T07:44:31Z</time>
      </trkpt>
      <trkpt lat="58.6744579487" lon="16.0444832314">
        <ele>106.36</ele>
        <time>2012-09-01T07:44:39Z</time>
      </trkpt>
      <trkpt lat="58.6741675157" lon="16.0446129832">
        <ele>104.92</ele>
        <time>2012-09-01T07:44:50Z</time>
      </trkpt>
      <trkpt lat="58.6739953514" lon="16.0446794517">
        <ele>105.4</ele>
        <time>2012-09-01T07:44:57Z</time>
      </trkpt>
      <trkpt lat="58.6738531943" lon="16.0447206907">
        <ele>106.84</ele>
        <time>2012-09-01T07:45:03Z</time>
      </trkpt>
      <trkpt lat="58.6737502646" lon="16.0447955411">
        <ele>105.88</ele>
        <time>2012-09-01T07:45:08Z</time>
      </trkpt>
      <trkpt lat="58.6735157389" lon="16.0448366962">
        <ele>105.4</ele>
        <time>2012-09-01T07:45:17Z</time>
      </trkpt>
      <trkpt lat="58.6734882463" lon="16.0448274761">
        <ele>105.4</ele>
        <time>2012-09-01T07:45:18Z</time>
      </trkpt>
      <trkpt lat="58.6732673831" lon="16.0448915139">
        <ele>105.88</ele>
        <time>2012-09-01T07:45:27Z</time>
      </trkpt>
      <trkpt lat="58.6732413992" lon="16.0448995605">
        <ele>106.36</ele>
        <time>2012-09-01T07:45:28Z</time>
      </trkpt>
      <trkpt lat="58.6731927842" lon="16.0449083615">
        <ele>106.36</ele>
        <time>2012-09-01T07:45:30Z</time>
      </trkpt>
      <trkpt lat="58.6729937978" lon="16.044912301">
        <ele>107.81</ele>
        <time>2012-09-01T07:45:38Z</time>
      </trkpt>
      <trkpt lat="58.6728910357" lon="16.0448620934">
        <ele>108.77</ele>
        <time>2012-09-01T07:45:42Z</time>
      </trkpt>
      <trkpt lat="58.672696827" lon="16.0447680485">
        <ele>112.61</ele>
        <time>2012-09-01T07:45:54Z</time>
      </trkpt>
      <trkpt lat="58.6726480443" lon="16.0446299147">
        <ele>114.53</ele>
        <time>2012-09-01T07:46:00Z</time>
      </trkpt>
      <trkpt lat="58.672622731" lon="16.0445650388">
        <ele>115.01</ele>
        <time>2012-09-01T07:46:02Z</time>
      </trkpt>
      <trkpt lat="58.6726011895" lon="16.0444978997">
        <ele>115.01</ele>
        <time>2012-09-01T07:46:04Z</time>
      </trkpt>
      <trkpt lat="58.6725788936" lon="16.0442607757">
        <ele>114.05</ele>
        <time>2012-09-01T07:46:10Z</time>
      </trkpt>
      <trkpt lat="58.6725680809" lon="16.0441983305">
        <ele>114.05</ele>
        <time>2012-09-01T07:46:12Z</time>
      </trkpt>
      <trkpt lat="58.6725391634" lon="16.0441136733">
        <ele>113.09</ele>
        <time>2012-09-01T07:46:16Z</time>
      </trkpt>
      <trkpt lat="58.6722911429" lon="16.0439818259">
        <ele>113.57</ele>
        <time>2012-09-01T07:46:24Z</time>
      </trkpt>
      <trkpt lat="58.6720620655" lon="16.0440525692">
        <ele>110.69</ele>
        <time>2012-09-01T07:46:34Z</time>
      </trkpt>
      <trkpt lat="58.6718194094" lon="16.0439890344">
        <ele>109.73</ele>
        <time>2012-09-01T07:46:42Z</time>
      </trkpt>
      <trkpt lat="58.6717456486" lon="16.0439621285">
        <ele>110.21</ele>
        <time>2012-09-01T07:46:45Z</time>
      </trkpt>
      <trkpt lat="58.6715372745" lon="16.0437571071">
        <ele>111.65</ele>
        <time>2012-09-01T07:46:55Z</time>
      </trkpt>
      <trkpt lat="58.6715258751" lon="16.0437262617">
        <ele>111.65</ele>
        <time>2012-09-01T07:46:56Z</time>
      </trkpt>
      <trkpt lat="58.6715073511" lon="16.0436763894">
        <ele>111.65</ele>
        <time>2012-09-01T07:46:58Z</time>
      </trkpt>
      <trkpt lat="58.6714948621" lon="16.0435644072">
        <ele>110.21</ele>
        <time>2012-09-01T07:47:02Z</time>
      </trkpt>
      <trkpt lat="58.6714900844" lon="16.043294007">
        <ele>112.13</ele>
        <time>2012-09-01T07:47:11Z</time>
      </trkpt>
      <trkpt lat="58.6715319101" lon="16.0431613214">
        <ele>112.13</ele>
        <time>2012-09-01T07:47:16Z</time>
      </trkpt>
      <trkpt lat="58.6715180799" lon="16.0427945293">
        <ele>112.61</ele>
        <time>2012-09-01T07:47:22Z</time>
      </trkpt>
      <trkpt lat="58.6714645196" lon="16.0425938666">
        <ele>113.09</ele>
        <time>2012-09-01T07:47:26Z</time>
      </trkpt>
      <trkpt lat="58.6712867394" lon="16.0422638711">
        <ele>114.05</ele>
        <time>2012-09-01T07:47:36Z</time>
      </trkpt>
      <trkpt lat="58.6712474283" lon="16.0422253981">
        <ele>114.53</ele>
        <time>2012-09-01T07:47:38Z</time>
      </trkpt>
      <trkpt lat="58.6710155848" lon="16.0420098156">
        <ele>114.53</ele>
        <time>2012-09-01T07:47:47Z</time>
      </trkpt>
      <trkpt lat="58.6708244774" lon="16.0419459455">
        <ele>112.61</ele>
        <time>2012-09-01T07:47:55Z</time>
      </trkpt>
      <trkpt lat="58.6707321089" lon="16.0419786349">
        <ele>111.17</ele>
        <time>2012-09-01T07:48:00Z</time>
      </trkpt>
      <trkpt lat="58.6705036182" lon="16.042004535">
        <ele>111.17</ele>
        <time>2012-09-01T07:48:10Z</time>
      </trkpt>
      <trkpt lat="58.6704811547" lon="16.0419979133">
        <ele>111.17</ele>
        <time>2012-09-01T07:48:11Z</time>
      </trkpt>
      <trkpt lat="58.6702331342" lon="16.0420087259">
        <ele>111.65</ele>
        <time>2012-09-01T07:48:21Z</time>
      </trkpt>
      <trkpt lat="58.6700173002" lon="16.0421320237">
        <ele>109.73</ele>
        <time>2012-09-01T07:48:30Z</time>
      </trkpt>
      <trkpt lat="58.6699197348" lon="16.042199498">
        <ele>109.25</ele>
        <time>2012-09-01T07:48:34Z</time>
      </trkpt>
      <trkpt lat="58.6696571298" lon="16.0423631966">
        <ele>106.36</ele>
        <time>2012-09-01T07:48:46Z</time>
      </trkpt>
      <trkpt lat="58.6696028989" lon="16.0423850734">
        <ele>106.36</ele>
        <time>2012-09-01T07:48:48Z</time>
      </trkpt>
      <trkpt lat="58.6693613324" lon="16.0425293259">
        <ele>104.44</ele>
        <time>2012-09-01T07:48:58Z</time>
      </trkpt>
      <trkpt lat="58.6690507829" lon="16.042592274">
        <ele>102.04</ele>
        <time>2012-09-01T07:49:10Z</time>
      </trkpt>
      <trkpt lat="58.6687724199" lon="16.0424379632">
        <ele>100.11</ele>
        <time>2012-09-01T07:49:21Z</time>
      </trkpt>
      <trkpt lat="58.6685832404" lon="16.0421188641">
        <ele>98.67</ele>
        <time>2012-09-01T07:49:31Z</time>
      </trkpt>
      <trkpt lat="58.6684936378" lon="16.0419159383">
        <ele>98.67</ele>
        <time>2012-09-01T07:49:35Z</time>
      </trkpt>
      <trkpt lat="58.6683349684" lon="16.0417596996">
        <ele>97.23</ele>
        <time>2012-09-01T07:49:42Z</time>
      </trkpt>
      <trkpt lat="58.6681358982" lon="16.0414562747">
        <ele>96.27</ele>
        <time>2012-09-01T07:49:50Z</time>
      </trkpt>
      <trkpt lat="58.6680405959" lon="16.0411898978">
        <ele>95.79</ele>
        <time>2012-09-01T07:49:56Z</time>
      </trkpt>
      <trkpt lat="58.6679606326" lon="16.040812796">
        <ele>94.35</ele>
        <time>2012-09-01T07:50:06Z</time>
      </trkpt>
      <trkpt lat="58.667928027" lon="16.0407853033">
        <ele>94.35</ele>
        <time>2012-09-01T07:50:08Z</time>
      </trkpt>
      <trkpt lat="58.667869186" lon="16.0407579783">
        <ele>94.35</ele>
        <time>2012-09-01T07:50:11Z</time>
      </trkpt>
      <trkpt lat="58.667791402" lon="16.0403786972">
        <ele>94.35</ele>
        <time>2012-09-01T07:50:18Z</time>
      </trkpt>
      <trkpt lat="58.6677487381" lon="16.0400572512">
        <ele>93.39</ele>
        <time>2012-09-01T07:50:25Z</time>
      </trkpt>
      <trkpt lat="58.6677256878" lon="16.0399513878">
        <ele>91.94</ele>
        <time>2012-09-01T07:50:27Z</time>
      </trkpt>
      <trkpt lat="58.6675950978" lon="16.0395490564">
        <ele>89.54</ele>
        <time>2012-09-01T07:50:36Z</time>
      </trkpt>
      <trkpt lat="58.6675562896" lon="16.0394117609">
        <ele>88.58</ele>
        <time>2012-09-01T07:50:39Z</time>
      </trkpt>
      <trkpt lat="58.6675518472" lon="16.0392466374">
        <ele>86.66</ele>
        <time>2012-09-01T07:50:43Z</time>
      </trkpt>
      <trkpt lat="58.6675406154" lon="16.0391799174">
        <ele>86.18</ele>
        <time>2012-09-01T07:50:45Z</time>
      </trkpt>
      <trkpt lat="58.6675186548" lon="16.0390853696">
        <ele>84.73</ele>
        <time>2012-09-01T07:50:47Z</time>
      </trkpt>
      <trkpt lat="58.667446319" lon="16.0388975311">
        <ele>83.29</ele>
        <time>2012-09-01T07:50:51Z</time>
      </trkpt>
      <trkpt lat="58.6674232688" lon="16.0388532747">
        <ele>82.81</ele>
        <time>2012-09-01T07:50:52Z</time>
      </trkpt>
      <trkpt lat="58.6673238594" lon="16.0387524404">
        <ele>80.41</ele>
        <time>2012-09-01T07:50:58Z</time>
      </trkpt>
      <trkpt lat="58.6672666948" lon="16.0387491714">
        <ele>78</ele>
        <time>2012-09-01T07:51:01Z</time>
      </trkpt>
      <trkpt lat="58.6671887431" lon="16.0386015661">
        <ele>75.6</ele>
        <time>2012-09-01T07:51:07Z</time>
      </trkpt>
      <trkpt lat="58.6672245339" lon="16.0383952036">
        <ele>75.6</ele>
        <time>2012-09-01T07:51:13Z</time>
      </trkpt>
      <trkpt lat="58.6671489291" lon="16.0380837321">
        <ele>75.6</ele>
        <time>2012-09-01T07:51:18Z</time>
      </trkpt>
      <trkpt lat="58.6669949535" lon="16.0375422612">
        <ele>76.56</ele>
        <time>2012-09-01T07:51:28Z</time>
      </trkpt>
      <trkpt lat="58.6669855658" lon="16.0375033692">
        <ele>77.04</ele>
        <time>2012-09-01T07:51:29Z</time>
      </trkpt>
      <trkpt lat="58.6669947021" lon="16.0372119304">
        <ele>77.04</ele>
        <time>2012-09-01T07:51:35Z</time>
      </trkpt>
      <trkpt lat="58.6669905111" lon="16.0368090123">
        <ele>78.97</ele>
        <time>2012-09-01T07:51:41Z</time>
      </trkpt>
      <trkpt lat="58.6670931056" lon="16.0363859776">
        <ele>81.37</ele>
        <time>2012-09-01T07:51:51Z</time>
      </trkpt>
      <trkpt lat="58.6671362724" lon="16.0360265616">
        <ele>82.33</ele>
        <time>2012-09-01T07:51:59Z</time>
      </trkpt>
      <trkpt lat="58.6671346799" lon="16.0358928703">
        <ele>83.29</ele>
        <time>2012-09-01T07:52:02Z</time>
      </trkpt>
      <trkpt lat="58.6671120487" lon="16.0356825683">
        <ele>83.29</ele>
        <time>2012-09-01T07:52:06Z</time>
      </trkpt>
      <trkpt lat="58.6670547165" lon="16.0353551712">
        <ele>83.29</ele>
        <time>2012-09-01T07:52:12Z</time>
      </trkpt>
      <trkpt lat="58.6670156568" lon="16.0348756425">
        <ele>83.29</ele>
        <time>2012-09-01T07:52:21Z</time>
      </trkpt>
      <trkpt lat="58.6669943668" lon="16.0347293783">
        <ele>83.29</ele>
        <time>2012-09-01T07:52:24Z</time>
      </trkpt>
      <trkpt lat="58.6669104639" lon="16.0342851374">
        <ele>83.77</ele>
        <time>2012-09-01T07:52:33Z</time>
      </trkpt>
      <trkpt lat="58.6667456757" lon="16.0339515377">
        <ele>83.77</ele>
        <time>2012-09-01T07:52:42Z</time>
      </trkpt>
      <trkpt lat="58.6666360404" lon="16.0338577442">
        <ele>83.77</ele>
        <time>2012-09-01T07:52:47Z</time>
      </trkpt>
      <trkpt lat="58.666371759" lon="16.0338426568">
        <ele>81.37</ele>
        <time>2012-09-01T07:52:56Z</time>
      </trkpt>
      <trkpt lat="58.6662546638" lon="16.0338187683">
        <ele>80.41</ele>
        <time>2012-09-01T07:53:01Z</time>
      </trkpt>
      <trkpt lat="58.6661384907" lon="16.0335457698">
        <ele>79.93</ele>
        <time>2012-09-01T07:53:10Z</time>
      </trkpt>
      <trkpt lat="58.6661410891" lon="16.0335050337">
        <ele>79.93</ele>
        <time>2012-09-01T07:53:11Z</time>
      </trkpt>
      <trkpt lat="58.6661782209" lon="16.0333600268">
        <ele>80.41</ele>
        <time>2012-09-01T07:53:14Z</time>
      </trkpt>
      <trkpt lat="58.6662044562" lon="16.0332849249">
        <ele>80.41</ele>
        <time>2012-09-01T07:53:16Z</time>
      </trkpt>
      <trkpt lat="58.6663440987" lon="16.0330289416">
        <ele>81.85</ele>
        <time>2012-09-01T07:53:24Z</time>
      </trkpt>
      <trkpt lat="58.6664012633" lon="16.0329153668">
        <ele>82.33</ele>
        <time>2012-09-01T07:53:27Z</time>
      </trkpt>
      <trkpt lat="58.6665390618" lon="16.0325175617">
        <ele>83.29</ele>
        <time>2012-09-01T07:53:37Z</time>
      </trkpt>
      <trkpt lat="58.6665449291" lon="16.0324278753">
        <ele>83.77</ele>
        <time>2012-09-01T07:53:39Z</time>
      </trkpt>
      <trkpt lat="58.666532021" lon="16.031998219">
        <ele>83.77</ele>
        <time>2012-09-01T07:53:44Z</time>
      </trkpt>
      <trkpt lat="58.6667161714" lon="16.031719856">
        <ele>84.73</ele>
        <time>2012-09-01T07:53:54Z</time>
      </trkpt>
      <trkpt lat="58.6669014115" lon="16.0314793792">
        <ele>85.21</ele>
        <time>2012-09-01T07:54:02Z</time>
      </trkpt>
      <trkpt lat="58.6669376213" lon="16.0314018466">
        <ele>84.73</ele>
        <time>2012-09-01T07:54:04Z</time>
      </trkpt>
      <trkpt lat="58.6670023296" lon="16.0312712565">
        <ele>85.21</ele>
        <time>2012-09-01T07:54:08Z</time>
      </trkpt>
      <trkpt lat="58.6668297462" lon="16.0304111894">
        <ele>86.18</ele>
        <time>2012-09-01T07:54:17Z</time>
      </trkpt>
      <trkpt lat="58.66682522" lon="16.0301442258">
        <ele>85.69</ele>
        <time>2012-09-01T07:54:21Z</time>
      </trkpt>
      <trkpt lat="58.666779371" lon="16.0298304912">
        <ele>85.69</ele>
        <time>2012-09-01T07:54:25Z</time>
      </trkpt>
      <trkpt lat="58.6668060254" lon="16.0296982247">
        <ele>86.18</ele>
        <time>2012-09-01T07:54:28Z</time>
      </trkpt>
      <trkpt lat="58.6668940354" lon="16.0296234582">
        <ele>85.69</ele>
        <time>2012-09-01T07:54:32Z</time>
      </trkpt>
      <trkpt lat="58.6668728292" lon="16.0294209514">
        <ele>85.69</ele>
        <time>2012-09-01T07:54:35Z</time>
      </trkpt>
      <trkpt lat="58.6668290757" lon="16.0291275848">
        <ele>85.69</ele>
        <time>2012-09-01T07:54:38Z</time>
      </trkpt>
      <trkpt lat="58.6669067759" lon="16.0287342221">
        <ele>85.69</ele>
        <time>2012-09-01T07:54:45Z</time>
      </trkpt>
      <trkpt lat="58.6670227814" lon="16.028590221">
        <ele>85.69</ele>
        <time>2012-09-01T07:54:50Z</time>
      </trkpt>
      <trkpt lat="58.6670937762" lon="16.0282172263">
        <ele>86.18</ele>
        <time>2012-09-01T07:54:56Z</time>
      </trkpt>
      <trkpt lat="58.6671125516" lon="16.0277057625">
        <ele>86.66</ele>
        <time>2012-09-01T07:55:05Z</time>
      </trkpt>
      <trkpt lat="58.6671191733" lon="16.0275028367">
        <ele>86.66</ele>
        <time>2012-09-01T07:55:09Z</time>
      </trkpt>
      <trkpt lat="58.6671228614" lon="16.0271741822">
        <ele>86.66</ele>
        <time>2012-09-01T07:55:15Z</time>
      </trkpt>
      <trkpt lat="58.6670579854" lon="16.0268834978">
        <ele>86.18</ele>
        <time>2012-09-01T07:55:21Z</time>
      </trkpt>
      <trkpt lat="58.6670763418" lon="16.0264629778">
        <ele>87.62</ele>
        <time>2012-09-01T07:55:30Z</time>
      </trkpt>
      <trkpt lat="58.6670870706" lon="16.0264088307">
        <ele>87.14</ele>
        <time>2012-09-01T07:55:31Z</time>
      </trkpt>
      <trkpt lat="58.6670754198" lon="16.0259451438">
        <ele>85.69</ele>
        <time>2012-09-01T07:55:40Z</time>
      </trkpt>
      <trkpt lat="58.6671571434" lon="16.0255407169">
        <ele>86.18</ele>
        <time>2012-09-01T07:55:50Z</time>
      </trkpt>
      <trkpt lat="58.6671798583" lon="16.0251432471">
        <ele>86.18</ele>
        <time>2012-09-01T07:55:59Z</time>
      </trkpt>
      <trkpt lat="58.6672109552" lon="16.0248853359">
        <ele>85.69</ele>
        <time>2012-09-01T07:56:04Z</time>
      </trkpt>
      <trkpt lat="58.6672099493" lon="16.0247981641">
        <ele>86.18</ele>
        <time>2012-09-01T07:56:06Z</time>
      </trkpt>
      <trkpt lat="58.667134596" lon="16.0244011972">
        <ele>87.14</ele>
        <time>2012-09-01T07:56:15Z</time>
      </trkpt>
      <trkpt lat="58.6671655253" lon="16.0242464673">
        <ele>86.66</ele>
        <time>2012-09-01T07:56:19Z</time>
      </trkpt>
      <trkpt lat="58.667190671" lon="16.0241855308">
        <ele>87.62</ele>
        <time>2012-09-01T07:56:22Z</time>
      </trkpt>
      <trkpt lat="58.6672854703" lon="16.0238065012">
        <ele>89.06</ele>
        <time>2012-09-01T07:56:31Z</time>
      </trkpt>
      <trkpt lat="58.6673159804" lon="16.0236853827">
        <ele>89.54</ele>
        <time>2012-09-01T07:56:34Z</time>
      </trkpt>
      <trkpt lat="58.6673811078" lon="16.0233492684">
        <ele>87.62</ele>
        <time>2012-09-01T07:56:41Z</time>
      </trkpt>
      <trkpt lat="58.6673570517" lon="16.0231320094">
        <ele>87.62</ele>
        <time>2012-09-01T07:56:46Z</time>
      </trkpt>
      <trkpt lat="58.6674547009" lon="16.0228768643">
        <ele>89.54</ele>
        <time>2012-09-01T07:56:54Z</time>
      </trkpt>
      <trkpt lat="58.6675039865" lon="16.0223576892">
        <ele>89.06</ele>
        <time>2012-09-01T07:57:04Z</time>
      </trkpt>
      <trkpt lat="58.6675904039" lon="16.0218526796">
        <ele>88.58</ele>
        <time>2012-09-01T07:57:14Z</time>
      </trkpt>
      <trkpt lat="58.6677230056" lon="16.0214894079">
        <ele>90.02</ele>
        <time>2012-09-01T07:57:24Z</time>
      </trkpt>
      <trkpt lat="58.6677510012" lon="16.0212340113">
        <ele>88.58</ele>
        <time>2012-09-01T07:57:30Z</time>
      </trkpt>
      <trkpt lat="58.667693669" lon="16.0208060313">
        <ele>89.54</ele>
        <time>2012-09-01T07:57:38Z</time>
      </trkpt>
      <trkpt lat="58.667655196" lon="16.0205572564">
        <ele>90.02</ele>
        <time>2012-09-01T07:57:43Z</time>
      </trkpt>
      <trkpt lat="58.6677185632" lon="16.0201097466">
        <ele>90.5</ele>
        <time>2012-09-01T07:57:53Z</time>
      </trkpt>
      <trkpt lat="58.6677215807" lon="16.0200520791">
        <ele>90.98</ele>
        <time>2012-09-01T07:57:54Z</time>
      </trkpt>
      <trkpt lat="58.667735327" lon="16.0199582018">
        <ele>91.46</ele>
        <time>2012-09-01T07:57:56Z</time>
      </trkpt>
      <trkpt lat="58.667780757" lon="16.0198098421">
        <ele>90.5</ele>
        <time>2012-09-01T07:58:00Z</time>
      </trkpt>
      <trkpt lat="58.6678078305" lon="16.0196332354">
        <ele>90.5</ele>
        <time>2012-09-01T07:58:04Z</time>
      </trkpt>
      <trkpt lat="58.6678216606" lon="16.0195272043">
        <ele>89.54</ele>
        <time>2012-09-01T07:58:06Z</time>
      </trkpt>
      <trkpt lat="58.6678307131" lon="16.0191957839">
        <ele>88.58</ele>
        <time>2012-09-01T07:58:12Z</time>
      </trkpt>
      <trkpt lat="58.6678996123" lon="16.0188280698">
        <ele>88.1</ele>
        <time>2012-09-01T07:58:20Z</time>
      </trkpt>
      <trkpt lat="58.6680339742" lon="16.0183923785">
        <ele>87.62</ele>
        <time>2012-09-01T07:58:31Z</time>
      </trkpt>
      <trkpt lat="58.6680856906" lon="16.0179293621">
        <ele>87.14</ele>
        <time>2012-09-01T07:58:41Z</time>
      </trkpt>
      <trkpt lat="58.668171186" lon="16.0174600594">
        <ele>86.66</ele>
        <time>2012-09-01T07:58:51Z</time>
      </trkpt>
      <trkpt lat="58.6682514008" lon="16.0173330735">
        <ele>85.69</ele>
        <time>2012-09-01T07:58:55Z</time>
      </trkpt>
      <trkpt lat="58.6683142651" lon="16.0170407128">
        <ele>86.18</ele>
        <time>2012-09-01T07:59:02Z</time>
      </trkpt>
      <trkpt lat="58.6682977527" lon="16.0166993178">
        <ele>86.18</ele>
        <time>2012-09-01T07:59:08Z</time>
      </trkpt>
      <trkpt lat="58.6683148518" lon="16.0164310969">
        <ele>86.66</ele>
        <time>2012-09-01T07:59:13Z</time>
      </trkpt>
      <trkpt lat="58.6683854274" lon="16.0158890393">
        <ele>86.18</ele>
        <time>2012-09-01T07:59:24Z</time>
      </trkpt>
      <trkpt lat="58.6683908757" lon="16.0157370754">
        <ele>86.18</ele>
        <time>2012-09-01T07:59:27Z</time>
      </trkpt>
      <trkpt lat="58.6684015207" lon="16.0152194928">
        <ele>87.14</ele>
        <time>2012-09-01T07:59:36Z</time>
      </trkpt>
      <trkpt lat="58.6684341263" lon="16.0149913374">
        <ele>89.06</ele>
        <time>2012-09-01T07:59:41Z</time>
      </trkpt>
      <trkpt lat="58.6684420891" lon="16.0146197677">
        <ele>90.02</ele>
        <time>2012-09-01T07:59:49Z</time>
      </trkpt>
      <trkpt lat="58.6685559992" lon="16.0141092259">
        <ele>88.1</ele>
        <time>2012-09-01T08:00:00Z</time>
      </trkpt>
      <trkpt lat="58.668527836" lon="16.013697926">
        <ele>84.73</ele>
        <time>2012-09-01T08:00:08Z</time>
      </trkpt>
      <trkpt lat="58.6685248185" lon="16.0136380792">
        <ele>84.73</ele>
        <time>2012-09-01T08:00:09Z</time>
      </trkpt>
      <trkpt lat="58.6685348768" lon="16.0135298688">
        <ele>84.25</ele>
        <time>2012-09-01T08:00:11Z</time>
      </trkpt>
      <trkpt lat="58.6686305143" lon="16.0132506676">
        <ele>83.29</ele>
        <time>2012-09-01T08:00:17Z</time>
      </trkpt>
      <trkpt lat="58.6688879225" lon="16.0130080953">
        <ele>80.89</ele>
        <time>2012-09-01T08:00:28Z</time>
      </trkpt>
      <trkpt lat="58.6689932831" lon="16.0131030623">
        <ele>81.37</ele>
        <time>2012-09-01T08:00:33Z</time>
      </trkpt>
      <trkpt lat="58.669162849" lon="16.0133655835">
        <ele>80.89</ele>
        <time>2012-09-01T08:00:41Z</time>
      </trkpt>
      <trkpt lat="58.6692884937" lon="16.0137705971">
        <ele>81.85</ele>
        <time>2012-09-01T08:00:50Z</time>
      </trkpt>
      <trkpt lat="58.6693475023" lon="16.0138477944">
        <ele>81.85</ele>
        <time>2012-09-01T08:00:54Z</time>
      </trkpt>
      <trkpt lat="58.6695386935" lon="16.0139145143">
        <ele>81.85</ele>
        <time>2012-09-01T08:01:02Z</time>
      </trkpt>
      <trkpt lat="58.6695619952" lon="16.0138741136">
        <ele>81.85</ele>
        <time>2012-09-01T08:01:04Z</time>
      </trkpt>
      <trkpt lat="58.6697033141" lon="16.0136082396">
        <ele>83.29</ele>
        <time>2012-09-01T08:01:14Z</time>
      </trkpt>
      <trkpt lat="58.6697194073" lon="16.0135981813">
        <ele>83.77</ele>
        <time>2012-09-01T08:01:15Z</time>
      </trkpt>
      <trkpt lat="58.6698285397" lon="16.0135967564">
        <ele>85.69</ele>
        <time>2012-09-01T08:01:19Z</time>
      </trkpt>
      <trkpt lat="58.6699225847" lon="16.0135981813">
        <ele>86.18</ele>
        <time>2012-09-01T08:01:24Z</time>
      </trkpt>
      <trkpt lat="58.6701832619" lon="16.0134746321">
        <ele>84.25</ele>
        <time>2012-09-01T08:01:35Z</time>
      </trkpt>
      <trkpt lat="58.6702481378" lon="16.013462143">
        <ele>82.81</ele>
        <time>2012-09-01T08:01:39Z</time>
      </trkpt>
      <trkpt lat="58.6704146024" lon="16.01362844">
        <ele>83.77</ele>
        <time>2012-09-01T08:01:45Z</time>
      </trkpt>
      <trkpt lat="58.6704504769" lon="16.0138156917">
        <ele>85.21</ele>
        <time>2012-09-01T08:01:51Z</time>
      </trkpt>
      <trkpt lat="58.6704752035" lon="16.01402767">
        <ele>88.1</ele>
        <time>2012-09-01T08:01:56Z</time>
      </trkpt>
      <trkpt lat="58.6704622116" lon="16.0141616128">
        <ele>88.58</ele>
        <time>2012-09-01T08:01:59Z</time>
      </trkpt>
      <trkpt lat="58.6704540811" lon="16.0145310033">
        <ele>88.1</ele>
        <time>2012-09-01T08:02:06Z</time>
      </trkpt>
      <trkpt lat="58.6706275027" lon="16.0149080213">
        <ele>90.98</ele>
        <time>2012-09-01T08:02:20Z</time>
      </trkpt>
      <trkpt lat="58.6708353739" lon="16.0150788445">
        <ele>91.46</ele>
        <time>2012-09-01T08:02:30Z</time>
      </trkpt>
      <trkpt lat="58.6708602682" lon="16.0150956083">
        <ele>91.46</ele>
        <time>2012-09-01T08:02:31Z</time>
      </trkpt>
      <trkpt lat="58.6709380522" lon="16.015123101">
        <ele>89.54</ele>
        <time>2012-09-01T08:02:35Z</time>
      </trkpt>
      <trkpt lat="58.6711163353" lon="16.0153364204">
        <ele>88.58</ele>
        <time>2012-09-01T08:02:43Z</time>
      </trkpt>
      <trkpt lat="58.6711517069" lon="16.0155002866">
        <ele>89.06</ele>
        <time>2012-09-01T08:02:47Z</time>
      </trkpt>
      <trkpt lat="58.6710879207" lon="16.0158778075">
        <ele>89.54</ele>
        <time>2012-09-01T08:02:54Z</time>
      </trkpt>
      <trkpt lat="58.6710625235" lon="16.0160213895">
        <ele>89.54</ele>
        <time>2012-09-01T08:02:57Z</time>
      </trkpt>
      <trkpt lat="58.6710376292" lon="16.0163107328">
        <ele>90.02</ele>
        <time>2012-09-01T08:03:03Z</time>
      </trkpt>
      <trkpt lat="58.6709547322" lon="16.0165694822">
        <ele>89.54</ele>
        <time>2012-09-01T08:03:09Z</time>
      </trkpt>
      <trkpt lat="58.6708492879" lon="16.0169242881">
        <ele>90.5</ele>
        <time>2012-09-01T08:03:18Z</time>
      </trkpt>
      <trkpt lat="58.670811234" lon="16.0170147289">
        <ele>90.98</ele>
        <time>2012-09-01T08:03:21Z</time>
      </trkpt>
      <trkpt lat="58.6707865074" lon="16.0171198379">
        <ele>90.98</ele>
        <time>2012-09-01T08:03:24Z</time>
      </trkpt>
      <trkpt lat="58.6707153451" lon="16.0174784996">
        <ele>90.98</ele>
        <time>2012-09-01T08:03:32Z</time>
      </trkpt>
      <trkpt lat="58.6706067156" lon="16.0179630574">
        <ele>92.9</ele>
        <time>2012-09-01T08:03:42Z</time>
      </trkpt>
      <trkpt lat="58.6705404986" lon="16.0183965694">
        <ele>94.35</ele>
        <time>2012-09-01T08:03:52Z</time>
      </trkpt>
      <trkpt lat="58.6706388183" lon="16.0187512916">
        <ele>94.83</ele>
        <time>2012-09-01T08:04:00Z</time>
      </trkpt>
      <trkpt lat="58.6706576776" lon="16.0188253038">
        <ele>95.79</ele>
        <time>2012-09-01T08:04:02Z</time>
      </trkpt>
      <trkpt lat="58.6706777103" lon="16.019018339">
        <ele>96.27</ele>
        <time>2012-09-01T08:04:06Z</time>
      </trkpt>
      <trkpt lat="58.6708625313" lon="16.0194261186">
        <ele>99.63</ele>
        <time>2012-09-01T08:04:19Z</time>
      </trkpt>
      <trkpt lat="58.670885833" lon="16.0194487497">
        <ele>99.63</ele>
        <time>2012-09-01T08:04:21Z</time>
      </trkpt>
      <trkpt lat="58.6710207816" lon="16.0194111988">
        <ele>102.04</ele>
        <time>2012-09-01T08:04:28Z</time>
      </trkpt>
      <trkpt lat="58.6710859928" lon="16.0193623323">
        <ele>103</ele>
        <time>2012-09-01T08:04:32Z</time>
      </trkpt>
      <trkpt lat="58.6711251363" lon="16.0193125438">
        <ele>103.96</ele>
        <time>2012-09-01T08:04:34Z</time>
      </trkpt>
      <trkpt lat="58.6712514516" lon="16.0190943629">
        <ele>104.44</ele>
        <time>2012-09-01T08:04:41Z</time>
      </trkpt>
      <trkpt lat="58.6713512801" lon="16.0188317578">
        <ele>106.36</ele>
        <time>2012-09-01T08:04:49Z</time>
      </trkpt>
      <trkpt lat="58.6713740788" lon="16.0187476035">
        <ele>106.36</ele>
        <time>2012-09-01T08:04:52Z</time>
      </trkpt>
      <trkpt lat="58.6713848915" lon="16.0186642036">
        <ele>106.84</ele>
        <time>2012-09-01T08:04:54Z</time>
      </trkpt>
      <trkpt lat="58.6715446506" lon="16.0184026882">
        <ele>106.36</ele>
        <time>2012-09-01T08:05:03Z</time>
      </trkpt>
      <trkpt lat="58.6715812795" lon="16.0183184501">
        <ele>105.88</ele>
        <time>2012-09-01T08:05:05Z</time>
      </trkpt>
      <trkpt lat="58.6716392823" lon="16.0180963296">
        <ele>106.36</ele>
        <time>2012-09-01T08:05:10Z</time>
      </trkpt>
      <trkpt lat="58.6717152223" lon="16.0178110935">
        <ele>105.88</ele>
        <time>2012-09-01T08:05:17Z</time>
      </trkpt>
      <trkpt lat="58.671825109" lon="16.0177625623">
        <ele>105.4</ele>
        <time>2012-09-01T08:05:21Z</time>
      </trkpt>
      <trkpt lat="58.672000207" lon="16.0175121948">
        <ele>103.96</ele>
        <time>2012-09-01T08:05:31Z</time>
      </trkpt>
      <trkpt lat="58.6720949225" lon="16.0170387011">
        <ele>102.52</ele>
        <time>2012-09-01T08:05:41Z</time>
      </trkpt>
      <trkpt lat="58.6721254326" lon="16.0168242082">
        <ele>102.52</ele>
        <time>2012-09-01T08:05:46Z</time>
      </trkpt>
      <trkpt lat="58.672244288" lon="16.0163958929">
        <ele>102.04</ele>
        <time>2012-09-01T08:05:54Z</time>
      </trkpt>
      <trkpt lat="58.6722587887" lon="16.0163505469">
        <ele>102.04</ele>
        <time>2012-09-01T08:05:55Z</time>
      </trkpt>
      <trkpt lat="58.6722861975" lon="16.0162711702">
        <ele>101.08</ele>
        <time>2012-09-01T08:05:57Z</time>
      </trkpt>
      <trkpt lat="58.6724189669" lon="16.0160068888">
        <ele>99.63</ele>
        <time>2012-09-01T08:06:05Z</time>
      </trkpt>
      <trkpt lat="58.6725750379" lon="16.0157737881">
        <ele>100.6</ele>
        <time>2012-09-01T08:06:13Z</time>
      </trkpt>
      <trkpt lat="58.6726805661" lon="16.0154049005">
        <ele>100.6</ele>
        <time>2012-09-01T08:06:21Z</time>
      </trkpt>
      <trkpt lat="58.6727071367" lon="16.015202729">
        <ele>100.11</ele>
        <time>2012-09-01T08:06:25Z</time>
      </trkpt>
      <trkpt lat="58.6727430113" lon="16.0150731448">
        <ele>99.63</ele>
        <time>2012-09-01T08:06:28Z</time>
      </trkpt>
      <trkpt lat="58.6728074681" lon="16.0146519542">
        <ele>99.63</ele>
        <time>2012-09-01T08:06:36Z</time>
      </trkpt>
      <trkpt lat="58.6729466077" lon="16.0141255707">
        <ele>99.15</ele>
        <time>2012-09-01T08:06:47Z</time>
      </trkpt>
      <trkpt lat="58.6729712505" lon="16.0140315257">
        <ele>99.63</ele>
        <time>2012-09-01T08:06:49Z</time>
      </trkpt>
      <trkpt lat="58.6729705799" lon="16.0135895479">
        <ele>100.11</ele>
        <time>2012-09-01T08:06:59Z</time>
      </trkpt>
      <trkpt lat="58.6729199532" lon="16.0133175552">
        <ele>100.6</ele>
        <time>2012-09-01T08:07:04Z</time>
      </trkpt>
      <trkpt lat="58.6729580071" lon="16.0128398705">
        <ele>99.63</ele>
        <time>2012-09-01T08:07:14Z</time>
      </trkpt>
      <trkpt lat="58.6730151717" lon="16.0124463402">
        <ele>98.19</ele>
        <time>2012-09-01T08:07:21Z</time>
      </trkpt>
      <trkpt lat="58.6730356235" lon="16.0120647959">
        <ele>96.75</ele>
        <time>2012-09-01T08:07:29Z</time>
      </trkpt>
      <trkpt lat="58.6731328536" lon="16.0115809087">
        <ele>97.23</ele>
        <time>2012-09-01T08:07:39Z</time>
      </trkpt>
      <trkpt lat="58.6732214503" lon="16.0112536792">
        <ele>95.79</ele>
        <time>2012-09-01T08:07:46Z</time>
      </trkpt>
      <trkpt lat="58.6733066943" lon="16.0111122765">
        <ele>94.83</ele>
        <time>2012-09-01T08:07:50Z</time>
      </trkpt>
      <trkpt lat="58.6734496057" lon="16.0110570397">
        <ele>94.35</ele>
        <time>2012-09-01T08:07:55Z</time>
      </trkpt>
      <trkpt lat="58.6735734902" lon="16.0108065885">
        <ele>91.46</ele>
        <time>2012-09-01T08:08:02Z</time>
      </trkpt>
      <trkpt lat="58.6736931838" lon="16.0107699595">
        <ele>90.98</ele>
        <time>2012-09-01T08:08:08Z</time>
      </trkpt>
      <trkpt lat="58.6738128774" lon="16.0110229254">
        <ele>92.42</ele>
        <time>2012-09-01T08:08:15Z</time>
      </trkpt>
      <trkpt lat="58.6738498416" lon="16.0111225862">
        <ele>92.9</ele>
        <time>2012-09-01T08:08:19Z</time>
      </trkpt>
      <trkpt lat="58.6739263684" lon="16.0113012046">
        <ele>92.42</ele>
        <time>2012-09-01T08:08:23Z</time>
      </trkpt>
      <trkpt lat="58.6739646737" lon="16.0115005262">
        <ele>92.42</ele>
        <time>2012-09-01T08:08:27Z</time>
      </trkpt>
      <trkpt lat="58.6740415357" lon="16.0119388159">
        <ele>90.02</ele>
        <time>2012-09-01T08:08:36Z</time>
      </trkpt>
      <trkpt lat="58.6740652565" lon="16.0121741798">
        <ele>89.54</ele>
        <time>2012-09-01T08:08:41Z</time>
      </trkpt>
      <trkpt lat="58.6741662584" lon="16.0125444084">
        <ele>92.42</ele>
        <time>2012-09-01T08:08:50Z</time>
      </trkpt>
      <trkpt lat="58.6742190644" lon="16.0126814526">
        <ele>92.9</ele>
        <time>2012-09-01T08:08:54Z</time>
      </trkpt>
      <trkpt lat="58.674418889" lon="16.0130955186">
        <ele>93.39</ele>
        <time>2012-09-01T08:09:07Z</time>
      </trkpt>
      <trkpt lat="58.6744413525" lon="16.0131773259">
        <ele>92.9</ele>
        <time>2012-09-01T08:09:09Z</time>
      </trkpt>
      <trkpt lat="58.6744939908" lon="16.0133085027">
        <ele>93.39</ele>
        <time>2012-09-01T08:09:13Z</time>
      </trkpt>
      <trkpt lat="58.6744761374" lon="16.013804879">
        <ele>92.42</ele>
        <time>2012-09-01T08:09:23Z</time>
      </trkpt>
      <trkpt lat="58.6744455434" lon="16.0143599287">
        <ele>93.39</ele>
        <time>2012-09-01T08:09:34Z</time>
      </trkpt>
      <trkpt lat="58.6744043045" lon="16.0148438159">
        <ele>92.9</ele>
        <time>2012-09-01T08:09:43Z</time>
      </trkpt>
      <trkpt lat="58.6744050588" lon="16.0151315667">
        <ele>93.87</ele>
        <time>2012-09-01T08:09:50Z</time>
      </trkpt>
      <trkpt lat="58.6745558493" lon="16.0156946629">
        <ele>92.42</ele>
        <time>2012-09-01T08:10:02Z</time>
      </trkpt>
      <trkpt lat="58.6747212242" lon="16.0162107367">
        <ele>92.9</ele>
        <time>2012-09-01T08:10:14Z</time>
      </trkpt>
      <trkpt lat="58.6747683305" lon="16.0164313484">
        <ele>91.94</ele>
        <time>2012-09-01T08:10:18Z</time>
      </trkpt>
      <trkpt lat="58.6749154329" lon="16.0168388765">
        <ele>90.02</ele>
        <time>2012-09-01T08:10:27Z</time>
      </trkpt>
      <trkpt lat="58.6750844121" lon="16.0171664413">
        <ele>88.1</ele>
        <time>2012-09-01T08:10:36Z</time>
      </trkpt>
      <trkpt lat="58.6751086358" lon="16.0173522681">
        <ele>87.14</ele>
        <time>2012-09-01T08:10:40Z</time>
      </trkpt>
      <trkpt lat="58.6750883516" lon="16.0175250191">
        <ele>88.1</ele>
        <time>2012-09-01T08:10:43Z</time>
      </trkpt>
      <trkpt lat="58.6750491243" lon="16.0176333971">
        <ele>89.06</ele>
        <time>2012-09-01T08:10:46Z</time>
      </trkpt>
      <trkpt lat="58.675027499" lon="16.0176711995">
        <ele>89.54</ele>
        <time>2012-09-01T08:10:47Z</time>
      </trkpt>
      <trkpt lat="58.6749919597" lon="16.017740434">
        <ele>90.5</ele>
        <time>2012-09-01T08:10:49Z</time>
      </trkpt>
      <trkpt lat="58.6749230605" lon="16.0178772267">
        <ele>90.98</ele>
        <time>2012-09-01T08:10:53Z</time>
      </trkpt>
      <trkpt lat="58.67486028" lon="16.0183652211">
        <ele>90.98</ele>
        <time>2012-09-01T08:11:03Z</time>
      </trkpt>
      <trkpt lat="58.6747591943" lon="16.0187003296">
        <ele>91.94</ele>
        <time>2012-09-01T08:11:11Z</time>
      </trkpt>
      <trkpt lat="58.6747425143" lon="16.0187936202">
        <ele>91.94</ele>
        <time>2012-09-01T08:11:13Z</time>
      </trkpt>
      <trkpt lat="58.6745165382" lon="16.0193274636">
        <ele>93.87</ele>
        <time>2012-09-01T08:11:26Z</time>
      </trkpt>
      <trkpt lat="58.674373962" lon="16.019745972">
        <ele>93.87</ele>
        <time>2012-09-01T08:11:36Z</time>
      </trkpt>
      <trkpt lat="58.6741916556" lon="16.020036405">
        <ele>93.39</ele>
        <time>2012-09-01T08:11:46Z</time>
      </trkpt>
      <trkpt lat="58.6741176434" lon="16.020326335">
        <ele>93.87</ele>
        <time>2012-09-01T08:11:53Z</time>
      </trkpt>
      <trkpt lat="58.674105322" lon="16.0204412509">
        <ele>94.35</ele>
        <time>2012-09-01T08:11:56Z</time>
      </trkpt>
      <trkpt lat="58.6741214991" lon="16.0205811448">
        <ele>94.83</ele>
        <time>2012-09-01T08:12:00Z</time>
      </trkpt>
      <trkpt lat="58.6740598083" lon="16.0207515489">
        <ele>94.35</ele>
        <time>2012-09-01T08:12:03Z</time>
      </trkpt>
      <trkpt lat="58.6739666015" lon="16.0209665447">
        <ele>92.42</ele>
        <time>2012-09-01T08:12:09Z</time>
      </trkpt>
      <trkpt lat="58.673710702" lon="16.0211682133">
        <ele>93.87</ele>
        <time>2012-09-01T08:12:19Z</time>
      </trkpt>
      <trkpt lat="58.6736099515" lon="16.02129017">
        <ele>93.87</ele>
        <time>2012-09-01T08:12:24Z</time>
      </trkpt>
      <trkpt lat="58.6735287309" lon="16.0214210115">
        <ele>94.35</ele>
        <time>2012-09-01T08:12:29Z</time>
      </trkpt>
      <trkpt lat="58.6734458338" lon="16.0215234384">
        <ele>94.35</ele>
        <time>2012-09-01T08:12:33Z</time>
      </trkpt>
      <trkpt lat="58.6733615119" lon="16.0216753185">
        <ele>94.83</ele>
        <time>2012-09-01T08:12:38Z</time>
      </trkpt>
      <trkpt lat="58.6733155791" lon="16.0217299685">
        <ele>94.35</ele>
        <time>2012-09-01T08:12:40Z</time>
      </trkpt>
      <trkpt lat="58.673077533" lon="16.0218602233">
        <ele>94.83</ele>
        <time>2012-09-01T08:12:49Z</time>
      </trkpt>
      <trkpt lat="58.673018273" lon="16.0219297931">
        <ele>95.31</ele>
        <time>2012-09-01T08:12:52Z</time>
      </trkpt>
      <trkpt lat="58.6729947198" lon="16.0219908971">
        <ele>95.79</ele>
        <time>2012-09-01T08:12:54Z</time>
      </trkpt>
      <trkpt lat="58.6728834081" lon="16.0223950725">
        <ele>96.75</ele>
        <time>2012-09-01T08:13:04Z</time>
      </trkpt>
      <trkpt lat="58.6728454381" lon="16.0224546678">
        <ele>97.71</ele>
        <time>2012-09-01T08:13:06Z</time>
      </trkpt>
      <trkpt lat="58.6727138422" lon="16.0225626267">
        <ele>97.71</ele>
        <time>2012-09-01T08:13:13Z</time>
      </trkpt>
      <trkpt lat="58.6725922208" lon="16.0226836614">
        <ele>99.63</ele>
        <time>2012-09-01T08:13:20Z</time>
      </trkpt>
      <trkpt lat="58.672579648" lon="16.0227198713">
        <ele>100.11</ele>
        <time>2012-09-01T08:13:21Z</time>
      </trkpt>
      <trkpt lat="58.6724119261" lon="16.02296873">
        <ele>102.52</ele>
        <time>2012-09-01T08:13:32Z</time>
      </trkpt>
      <trkpt lat="58.6723436136" lon="16.0230802931">
        <ele>103.96</ele>
        <time>2012-09-01T08:13:36Z</time>
      </trkpt>
      <trkpt lat="58.6721999478" lon="16.0232488532">
        <ele>105.88</ele>
        <time>2012-09-01T08:13:43Z</time>
      </trkpt>
      <trkpt lat="58.6720378418" lon="16.0234801099">
        <ele>106.36</ele>
        <time>2012-09-01T08:13:50Z</time>
      </trkpt>
      <trkpt lat="58.6719109397" lon="16.0237526894">
        <ele>107.32</ele>
        <time>2012-09-01T08:13:58Z</time>
      </trkpt>
      <trkpt lat="58.6718820222" lon="16.023814464">
        <ele>107.81</ele>
        <time>2012-09-01T08:14:00Z</time>
      </trkpt>
      <trkpt lat="58.6718727183" lon="16.0240306333">
        <ele>107.32</ele>
        <time>2012-09-01T08:14:05Z</time>
      </trkpt>
      <trkpt lat="58.6718329042" lon="16.0242095031">
        <ele>106.36</ele>
        <time>2012-09-01T08:14:09Z</time>
      </trkpt>
      <trkpt lat="58.6716569681" lon="16.0244752932">
        <ele>105.88</ele>
        <time>2012-09-01T08:14:18Z</time>
      </trkpt>
      <trkpt lat="58.671586141" lon="16.0245198011">
        <ele>105.4</ele>
        <time>2012-09-01T08:14:21Z</time>
      </trkpt>
      <trkpt lat="58.671454126" lon="16.0247374792">
        <ele>104.92</ele>
        <time>2012-09-01T08:14:27Z</time>
      </trkpt>
      <trkpt lat="58.6712915171" lon="16.0248291772">
        <ele>104.92</ele>
        <time>2012-09-01T08:14:35Z</time>
      </trkpt>
      <trkpt lat="58.6710118968" lon="16.0247936379">
        <ele>103.96</ele>
        <time>2012-09-01T08:14:46Z</time>
      </trkpt>
      <trkpt lat="58.6708998308" lon="16.0247933026">
        <ele>104.44</ele>
        <time>2012-09-01T08:14:50Z</time>
      </trkpt>
      <trkpt lat="58.6708577536" lon="16.0248164367">
        <ele>104.44</ele>
        <time>2012-09-01T08:14:52Z</time>
      </trkpt>
      <trkpt lat="58.6707961466" lon="16.0249018483">
        <ele>104.92</ele>
        <time>2012-09-01T08:14:56Z</time>
      </trkpt>
      <trkpt lat="58.6707596853" lon="16.0249540675">
        <ele>104.92</ele>
        <time>2012-09-01T08:14:58Z</time>
      </trkpt>
      <trkpt lat="58.6705911253" lon="16.0253024194">
        <ele>102.52</ele>
        <time>2012-09-01T08:15:07Z</time>
      </trkpt>
      <trkpt lat="58.6705085635" lon="16.0254138988">
        <ele>102.04</ele>
        <time>2012-09-01T08:15:11Z</time>
      </trkpt>
      <trkpt lat="58.6703352258" lon="16.0257045832">
        <ele>102.52</ele>
        <time>2012-09-01T08:15:20Z</time>
      </trkpt>
      <trkpt lat="58.6703022849" lon="16.0258114524">
        <ele>102.52</ele>
        <time>2012-09-01T08:15:24Z</time>
      </trkpt>
      <trkpt lat="58.6702549271" lon="16.0259318165">
        <ele>103</ele>
        <time>2012-09-01T08:15:27Z</time>
      </trkpt>
      <trkpt lat="58.6701991037" lon="16.026145136">
        <ele>102.52</ele>
        <time>2012-09-01T08:15:31Z</time>
      </trkpt>
      <trkpt lat="58.6700986046" lon="16.0263638198">
        <ele>102.04</ele>
        <time>2012-09-01T08:15:36Z</time>
      </trkpt>
      <trkpt lat="58.6700647417" lon="16.0264699347">
        <ele>101.56</ele>
        <time>2012-09-01T08:15:38Z</time>
      </trkpt>
      <trkpt lat="58.6699302122" lon="16.0268053785">
        <ele>99.15</ele>
        <time>2012-09-01T08:15:45Z</time>
      </trkpt>
      <trkpt lat="58.669717228" lon="16.027231263">
        <ele>98.19</ele>
        <time>2012-09-01T08:15:56Z</time>
      </trkpt>
      <trkpt lat="58.6695720535" lon="16.027518427">
        <ele>96.75</ele>
        <time>2012-09-01T08:16:03Z</time>
      </trkpt>
      <trkpt lat="58.6695117038" lon="16.0277783498">
        <ele>96.27</ele>
        <time>2012-09-01T08:16:08Z</time>
      </trkpt>
      <trkpt lat="58.6694765836" lon="16.0279185791">
        <ele>96.27</ele>
        <time>2012-09-01T08:16:11Z</time>
      </trkpt>
      <trkpt lat="58.6693398748" lon="16.0281885602">
        <ele>96.27</ele>
        <time>2012-09-01T08:16:19Z</time>
      </trkpt>
      <trkpt lat="58.6692166608" lon="16.028216891">
        <ele>95.79</ele>
        <time>2012-09-01T08:16:24Z</time>
      </trkpt>
      <trkpt lat="58.6690429877" lon="16.0281187389">
        <ele>97.23</ele>
        <time>2012-09-01T08:16:32Z</time>
      </trkpt>
      <trkpt lat="58.6688600946" lon="16.0281915776">
        <ele>96.75</ele>
        <time>2012-09-01T08:16:39Z</time>
      </trkpt>
      <trkpt lat="58.668815922" lon="16.0282489937">
        <ele>96.27</ele>
        <time>2012-09-01T08:16:41Z</time>
      </trkpt>
      <trkpt lat="58.6685829889" lon="16.028446639">
        <ele>94.83</ele>
        <time>2012-09-01T08:16:50Z</time>
      </trkpt>
      <trkpt lat="58.6683676578" lon="16.028740257">
        <ele>93.87</ele>
        <time>2012-09-01T08:17:00Z</time>
      </trkpt>
      <trkpt lat="58.6682312842" lon="16.0287765507">
        <ele>92.42</ele>
        <time>2012-09-01T08:17:05Z</time>
      </trkpt>
      <trkpt lat="58.6681510694" lon="16.0288504791">
        <ele>91.94</ele>
        <time>2012-09-01T08:17:09Z</time>
      </trkpt>
      <trkpt lat="58.6681680009" lon="16.0293077957">
        <ele>89.54</ele>
        <time>2012-09-01T08:17:18Z</time>
      </trkpt>
      <trkpt lat="58.6681638099" lon="16.0295713227">
        <ele>88.58</ele>
        <time>2012-09-01T08:17:23Z</time>
      </trkpt>
      <trkpt lat="58.6680486426" lon="16.0300108697">
        <ele>85.21</ele>
        <time>2012-09-01T08:17:34Z</time>
      </trkpt>
      <trkpt lat="58.6680510733" lon="16.0304271989">
        <ele>85.21</ele>
        <time>2012-09-01T08:17:42Z</time>
      </trkpt>
      <trkpt lat="58.6681504827" lon="16.0308756307">
        <ele>85.21</ele>
        <time>2012-09-01T08:17:51Z</time>
      </trkpt>
      <trkpt lat="58.6682421807" lon="16.0311749484">
        <ele>85.69</ele>
        <time>2012-09-01T08:17:58Z</time>
      </trkpt>
      <trkpt lat="58.6681997683" lon="16.0317027569">
        <ele>85.21</ele>
        <time>2012-09-01T08:18:07Z</time>
      </trkpt>
      <trkpt lat="58.6681893747" lon="16.0318007413">
        <ele>85.21</ele>
        <time>2012-09-01T08:18:09Z</time>
      </trkpt>
      <trkpt lat="58.6681680009" lon="16.0320506897">
        <ele>85.21</ele>
        <time>2012-09-01T08:18:14Z</time>
      </trkpt>
      <trkpt lat="58.6681127641" lon="16.0322375223">
        <ele>85.21</ele>
        <time>2012-09-01T08:18:18Z</time>
      </trkpt>
      <trkpt lat="58.6680602934" lon="16.0326596349">
        <ele>85.69</ele>
        <time>2012-09-01T08:18:29Z</time>
      </trkpt>
      <trkpt lat="58.6681348924" lon="16.0329876188">
        <ele>85.69</ele>
        <time>2012-09-01T08:18:37Z</time>
      </trkpt>
      <trkpt lat="58.6681232415" lon="16.0331011098">
        <ele>86.18</ele>
        <time>2012-09-01T08:18:40Z</time>
      </trkpt>
      <trkpt lat="58.6680978443" lon="16.0331545025">
        <ele>85.69</ele>
        <time>2012-09-01T08:18:41Z</time>
      </trkpt>
      <trkpt lat="58.6678966787" lon="16.0335704125">
        <ele>85.69</ele>
        <time>2012-09-01T08:18:50Z</time>
      </trkpt>
      <trkpt lat="58.6677961797" lon="16.0337253939">
        <ele>86.66</ele>
        <time>2012-09-01T08:18:54Z</time>
      </trkpt>
      <trkpt lat="58.667699201" lon="16.0339672118">
        <ele>86.18</ele>
        <time>2012-09-01T08:19:00Z</time>
      </trkpt>
      <trkpt lat="58.6676210817" lon="16.0342252906">
        <ele>87.14</ele>
        <time>2012-09-01T08:19:06Z</time>
      </trkpt>
      <trkpt lat="58.667555619" lon="16.0346909892">
        <ele>85.21</ele>
        <time>2012-09-01T08:19:18Z</time>
      </trkpt>
      <trkpt lat="58.6673858855" lon="16.0352738667">
        <ele>85.69</ele>
        <time>2012-09-01T08:19:30Z</time>
      </trkpt>
      <trkpt lat="58.6673080176" lon="16.0354894493">
        <ele>85.69</ele>
        <time>2012-09-01T08:19:34Z</time>
      </trkpt>
      <trkpt lat="58.6670706421" lon="16.0356404074">
        <ele>84.25</ele>
        <time>2012-09-01T08:19:43Z</time>
      </trkpt>
      <trkpt lat="58.6670636013" lon="16.0354957357">
        <ele>84.73</ele>
        <time>2012-09-01T08:19:47Z</time>
      </trkpt>
      <trkpt lat="58.6670190096" lon="16.0348327272">
        <ele>84.73</ele>
        <time>2012-09-01T08:19:58Z</time>
      </trkpt>
      <trkpt lat="58.6669727415" lon="16.0344424658">
        <ele>84.73</ele>
        <time>2012-09-01T08:20:06Z</time>
      </trkpt>
      <trkpt lat="58.6669101287" lon="16.0342308227">
        <ele>85.21</ele>
        <time>2012-09-01T08:20:11Z</time>
      </trkpt>
      <trkpt lat="58.666834021" lon="16.0340625979">
        <ele>85.69</ele>
        <time>2012-09-01T08:20:15Z</time>
      </trkpt>
      <trkpt lat="58.6666456796" lon="16.0337957181">
        <ele>85.21</ele>
        <time>2012-09-01T08:20:23Z</time>
      </trkpt>
      <trkpt lat="58.6664684862" lon="16.0337699018">
        <ele>84.73</ele>
        <time>2012-09-01T08:20:29Z</time>
      </trkpt>
      <trkpt lat="58.6663117446" lon="16.0337502044">
        <ele>83.29</ele>
        <time>2012-09-01T08:20:34Z</time>
      </trkpt>
      <trkpt lat="58.6662002653" lon="16.0337087978">
        <ele>82.81</ele>
        <time>2012-09-01T08:20:38Z</time>
      </trkpt>
      <trkpt lat="58.6659307871" lon="16.0335225519">
        <ele>81.37</ele>
        <time>2012-09-01T08:20:47Z</time>
      </trkpt>
      <trkpt lat="58.665675642" lon="16.0334740207">
        <ele>79.93</ele>
        <time>2012-09-01T08:20:56Z</time>
      </trkpt>
      <trkpt lat="58.6654107738" lon="16.0334813967">
        <ele>78.97</ele>
        <time>2012-09-01T08:21:05Z</time>
      </trkpt>
      <trkpt lat="58.6653443892" lon="16.0335009266">
        <ele>78.48</ele>
        <time>2012-09-01T08:21:07Z</time>
      </trkpt>
      <trkpt lat="58.6650698818" lon="16.0335994978">
        <ele>78.97</ele>
        <time>2012-09-01T08:21:17Z</time>
      </trkpt>
      <trkpt lat="58.6647715699" lon="16.0337163415">
        <ele>79.93</ele>
        <time>2012-09-01T08:21:28Z</time>
      </trkpt>
      <trkpt lat="58.6645449232" lon="16.0338377953">
        <ele>80.89</ele>
        <time>2012-09-01T08:21:37Z</time>
      </trkpt>
      <trkpt lat="58.6643286701" lon="16.0340238735">
        <ele>82.33</ele>
        <time>2012-09-01T08:21:46Z</time>
      </trkpt>
      <trkpt lat="58.6640985869" lon="16.034185309">
        <ele>82.81</ele>
        <time>2012-09-01T08:21:56Z</time>
      </trkpt>
      <trkpt lat="58.6639030371" lon="16.0343116242">
        <ele>82.81</ele>
        <time>2012-09-01T08:22:04Z</time>
      </trkpt>
      <trkpt lat="58.6636784859" lon="16.034543803">
        <ele>81.85</ele>
        <time>2012-09-01T08:22:13Z</time>
      </trkpt>
      <trkpt lat="58.6635048129" lon="16.0347407777">
        <ele>81.85</ele>
        <time>2012-09-01T08:22:20Z</time>
      </trkpt>
      <trkpt lat="58.6632234324" lon="16.0349485651">
        <ele>81.37</ele>
        <time>2012-09-01T08:22:31Z</time>
      </trkpt>
      <trkpt lat="58.6629610788" lon="16.0349397641">
        <ele>81.37</ele>
        <time>2012-09-01T08:22:41Z</time>
      </trkpt>
      <trkpt lat="58.662833171" lon="16.0349034704">
        <ele>81.85</ele>
        <time>2012-09-01T08:22:46Z</time>
      </trkpt>
      <trkpt lat="58.6627637688" lon="16.0349033028">
        <ele>81.37</ele>
        <time>2012-09-01T08:22:49Z</time>
      </trkpt>
      <trkpt lat="58.6626204383" lon="16.0348256025">
        <ele>81.37</ele>
        <time>2012-09-01T08:22:54Z</time>
      </trkpt>
      <trkpt lat="58.6625308357" lon="16.0347247683">
        <ele>80.89</ele>
        <time>2012-09-01T08:22:58Z</time>
      </trkpt>
      <trkpt lat="58.6624657083" lon="16.0346440505">
        <ele>80.89</ele>
        <time>2012-09-01T08:23:01Z</time>
      </trkpt>
      <trkpt lat="58.6624094658" lon="16.0345417075">
        <ele>80.89</ele>
        <time>2012-09-01T08:23:04Z</time>
      </trkpt>
      <trkpt lat="58.6623503733" lon="16.0342492629">
        <ele>81.37</ele>
        <time>2012-09-01T08:23:13Z</time>
      </trkpt>
      <trkpt lat="58.6623926181" lon="16.0340428166">
        <ele>81.37</ele>
        <time>2012-09-01T08:23:19Z</time>
      </trkpt>
      <trkpt lat="58.6624190211" lon="16.033834191">
        <ele>81.85</ele>
        <time>2012-09-01T08:23:24Z</time>
      </trkpt>
      <trkpt lat="58.6624458432" lon="16.0337141622">
        <ele>82.33</ele>
        <time>2012-09-01T08:23:27Z</time>
      </trkpt>
      <trkpt lat="58.6625430733" lon="16.0334081389">
        <ele>83.29</ele>
        <time>2012-09-01T08:23:36Z</time>
      </trkpt>
      <trkpt lat="58.6626594979" lon="16.0332077276">
        <ele>84.25</ele>
        <time>2012-09-01T08:23:42Z</time>
      </trkpt>
      <trkpt lat="58.6626874935" lon="16.0330518242">
        <ele>85.21</ele>
        <time>2012-09-01T08:23:46Z</time>
      </trkpt>
      <trkpt lat="58.6627007369" lon="16.0329157021">
        <ele>84.73</ele>
        <time>2012-09-01T08:23:49Z</time>
      </trkpt>
      <trkpt lat="58.6626624316" lon="16.0326113552">
        <ele>85.69</ele>
        <time>2012-09-01T08:23:56Z</time>
      </trkpt>
      <trkpt lat="58.6626411416" lon="16.0323096067">
        <ele>87.14</ele>
        <time>2012-09-01T08:24:03Z</time>
      </trkpt>
      <trkpt lat="58.6625897605" lon="16.0320321657">
        <ele>90.02</ele>
        <time>2012-09-01T08:24:10Z</time>
      </trkpt>
      <trkpt lat="58.6625580769" lon="16.0316950455">
        <ele>92.42</ele>
        <time>2012-09-01T08:24:18Z</time>
      </trkpt>
      <trkpt lat="58.6626450811" lon="16.0312693287">
        <ele>93.87</ele>
        <time>2012-09-01T08:24:28Z</time>
      </trkpt>
      <trkpt lat="58.6626759265" lon="16.0311311111">
        <ele>93.39</ele>
        <time>2012-09-01T08:24:31Z</time>
      </trkpt>
      <trkpt lat="58.6627056822" lon="16.0307804961">
        <ele>94.35</ele>
        <time>2012-09-01T08:24:39Z</time>
      </trkpt>
      <trkpt lat="58.662684476" lon="16.0307074059">
        <ele>94.35</ele>
        <time>2012-09-01T08:24:41Z</time>
      </trkpt>
      <trkpt lat="58.6624805443" lon="16.0304553621">
        <ele>94.35</ele>
        <time>2012-09-01T08:24:51Z</time>
      </trkpt>
      <trkpt lat="58.6624597572" lon="16.0298770107">
        <ele>94.83</ele>
        <time>2012-09-01T08:25:02Z</time>
      </trkpt>
      <trkpt lat="58.6625464261" lon="16.0294620227">
        <ele>95.31</ele>
        <time>2012-09-01T08:25:12Z</time>
      </trkpt>
      <trkpt lat="58.6625546403" lon="16.0294189397">
        <ele>95.79</ele>
        <time>2012-09-01T08:25:13Z</time>
      </trkpt>
      <trkpt lat="58.6625464261" lon="16.0291731823">
        <ele>96.27</ele>
        <time>2012-09-01T08:25:19Z</time>
      </trkpt>
      <trkpt lat="58.6625320092" lon="16.0291055404">
        <ele>96.75</ele>
        <time>2012-09-01T08:25:21Z</time>
      </trkpt>
      <trkpt lat="58.662450118" lon="16.0288961604">
        <ele>98.19</ele>
        <time>2012-09-01T08:25:27Z</time>
      </trkpt>
      <trkpt lat="58.6623985693" lon="16.0288151074">
        <ele>99.63</ele>
        <time>2012-09-01T08:25:30Z</time>
      </trkpt>
      <trkpt lat="58.6623113975" lon="16.0286436137">
        <ele>103</ele>
        <time>2012-09-01T08:25:37Z</time>
      </trkpt>
      <trkpt lat="58.6622950528" lon="16.0286217369">
        <ele>103</ele>
        <time>2012-09-01T08:25:38Z</time>
      </trkpt>
      <trkpt lat="58.6621725932" lon="16.0285159573">
        <ele>105.88</ele>
        <time>2012-09-01T08:25:45Z</time>
      </trkpt>
      <trkpt lat="58.662098581" lon="16.028486453">
        <ele>107.32</ele>
        <time>2012-09-01T08:25:50Z</time>
      </trkpt>
      <trkpt lat="58.6620027758" lon="16.0284553561">
        <ele>109.25</ele>
        <time>2012-09-01T08:25:56Z</time>
      </trkpt>
      <trkpt lat="58.6619321164" lon="16.0284240916">
        <ele>110.21</ele>
        <time>2012-09-01T08:26:00Z</time>
      </trkpt>
      <trkpt lat="58.6618333776" lon="16.0282655898">
        <ele>110.21</ele>
        <time>2012-09-01T08:26:06Z</time>
      </trkpt>
      <trkpt lat="58.6617477145" lon="16.0283276998">
        <ele>110.69</ele>
        <time>2012-09-01T08:26:10Z</time>
      </trkpt>
      <trkpt lat="58.6616145261" lon="16.0287337191">
        <ele>111.17</ele>
        <time>2012-09-01T08:26:21Z</time>
      </trkpt>
      <trkpt lat="58.6615287792" lon="16.0290041193">
        <ele>112.13</ele>
        <time>2012-09-01T08:26:28Z</time>
      </trkpt>
      <trkpt lat="58.6613923218" lon="16.0293553211">
        <ele>113.57</ele>
        <time>2012-09-01T08:26:37Z</time>
      </trkpt>
      <trkpt lat="58.6613805871" lon="16.0293864179">
        <ele>114.53</ele>
        <time>2012-09-01T08:26:38Z</time>
      </trkpt>
      <trkpt lat="58.6613675952" lon="16.0294232983">
        <ele>114.53</ele>
        <time>2012-09-01T08:26:39Z</time>
      </trkpt>
      <trkpt lat="58.6613540165" lon="16.02947996">
        <ele>115.01</ele>
        <time>2012-09-01T08:26:41Z</time>
      </trkpt>
      <trkpt lat="58.6611514259" lon="16.0298522841">
        <ele>116.46</ele>
        <time>2012-09-01T08:26:50Z</time>
      </trkpt>
      <trkpt lat="58.6611319799" lon="16.0299070179">
        <ele>116.46</ele>
        <time>2012-09-01T08:26:52Z</time>
      </trkpt>
      <trkpt lat="58.6610926688" lon="16.03013115">
        <ele>116.46</ele>
        <time>2012-09-01T08:26:57Z</time>
      </trkpt>
      <trkpt lat="58.6610560399" lon="16.0304069985">
        <ele>116.46</ele>
        <time>2012-09-01T08:27:02Z</time>
      </trkpt>
      <trkpt lat="58.6609594803" lon="16.0306885466">
        <ele>118.38</ele>
        <time>2012-09-01T08:27:10Z</time>
      </trkpt>
      <trkpt lat="58.660892006" lon="16.0308309551">
        <ele>118.38</ele>
        <time>2012-09-01T08:27:13Z</time>
      </trkpt>
      <trkpt lat="58.6608551256" lon="16.0309110861">
        <ele>118.38</ele>
        <time>2012-09-01T08:27:15Z</time>
      </trkpt>
      <trkpt lat="58.6606200133" lon="16.0311591066">
        <ele>119.34</ele>
        <time>2012-09-01T08:27:25Z</time>
      </trkpt>
      <trkpt lat="58.6605146527" lon="16.0312373098">
        <ele>118.86</ele>
        <time>2012-09-01T08:27:30Z</time>
      </trkpt>
      <trkpt lat="58.6602528021" lon="16.0314761102">
        <ele>116.94</ele>
        <time>2012-09-01T08:27:40Z</time>
      </trkpt>
      <trkpt lat="58.6601784546" lon="16.0315098893">
        <ele>117.42</ele>
        <time>2012-09-01T08:27:43Z</time>
      </trkpt>
      <trkpt lat="58.6601590086" lon="16.0315224621">
        <ele>116.94</ele>
        <time>2012-09-01T08:27:44Z</time>
      </trkpt>
      <trkpt lat="58.6601259001" lon="16.0316921119">
        <ele>118.38</ele>
        <time>2012-09-01T08:27:49Z</time>
      </trkpt>
      <trkpt lat="58.6600341182" lon="16.0319739953">
        <ele>118.38</ele>
        <time>2012-09-01T08:27:56Z</time>
      </trkpt>
      <trkpt lat="58.6599269137" lon="16.0323318187">
        <ele>120.78</ele>
        <time>2012-09-01T08:28:05Z</time>
      </trkpt>
      <trkpt lat="58.6598881055" lon="16.0326380096">
        <ele>120.3</ele>
        <time>2012-09-01T08:28:12Z</time>
      </trkpt>
      <trkpt lat="58.6598281749" lon="16.0327669233">
        <ele>118.38</ele>
        <time>2012-09-01T08:28:16Z</time>
      </trkpt>
      <trkpt lat="58.6597869359" lon="16.0328369122">
        <ele>118.38</ele>
        <time>2012-09-01T08:28:19Z</time>
      </trkpt>
      <trkpt lat="58.6597381532" lon="16.0328965914">
        <ele>117.42</ele>
        <time>2012-09-01T08:28:23Z</time>
      </trkpt>
      <trkpt lat="58.6596404202" lon="16.0332673229">
        <ele>116.46</ele>
        <time>2012-09-01T08:28:31Z</time>
      </trkpt>
      <trkpt lat="58.6595684197" lon="16.0336469393">
        <ele>117.9</ele>
        <time>2012-09-01T08:28:40Z</time>
      </trkpt>
      <trkpt lat="58.6595067289" lon="16.0337602627">
        <ele>117.42</ele>
        <time>2012-09-01T08:28:44Z</time>
      </trkpt>
      <trkpt lat="58.6594454572" lon="16.0340823792">
        <ele>116.94</ele>
        <time>2012-09-01T08:28:52Z</time>
      </trkpt>
      <trkpt lat="58.6593649071" lon="16.0344038252">
        <ele>114.05</ele>
        <time>2012-09-01T08:29:01Z</time>
      </trkpt>
      <trkpt lat="58.6593251768" lon="16.0344425496">
        <ele>113.57</ele>
        <time>2012-09-01T08:29:03Z</time>
      </trkpt>
      <trkpt lat="58.6592164636" lon="16.0346904863">
        <ele>112.13</ele>
        <time>2012-09-01T08:29:13Z</time>
      </trkpt>
      <trkpt lat="58.659191737" lon="16.0347620677">
        <ele>111.17</ele>
        <time>2012-09-01T08:29:17Z</time>
      </trkpt>
      <trkpt lat="58.6591365002" lon="16.0349520855">
        <ele>108.77</ele>
        <time>2012-09-01T08:29:22Z</time>
      </trkpt>
      <trkpt lat="58.6590275355" lon="16.0352997668">
        <ele>106.84</ele>
        <time>2012-09-01T08:29:33Z</time>
      </trkpt>
      <trkpt lat="58.6589204986" lon="16.0355776269">
        <ele>104.44</ele>
        <time>2012-09-01T08:29:42Z</time>
      </trkpt>
      <trkpt lat="58.658842044" lon="16.0356507171">
        <ele>103.48</ele>
        <time>2012-09-01T08:29:45Z</time>
      </trkpt>
      <trkpt lat="58.6587590631" lon="16.0357862525">
        <ele>102.04</ele>
        <time>2012-09-01T08:29:50Z</time>
      </trkpt>
      <trkpt lat="58.6587518547" lon="16.0358792078">
        <ele>102.04</ele>
        <time>2012-09-01T08:29:53Z</time>
      </trkpt>
      <trkpt lat="58.6587023176" lon="16.0360455886">
        <ele>103.48</ele>
        <time>2012-09-01T08:29:58Z</time>
      </trkpt>
      <trkpt lat="58.6584278941" lon="16.0360746738">
        <ele>103.48</ele>
        <time>2012-09-01T08:30:09Z</time>
      </trkpt>
      <trkpt lat="58.65821952" lon="16.0360666271">
        <ele>102.52</ele>
        <time>2012-09-01T08:30:17Z</time>
      </trkpt>
      <trkpt lat="58.6580091342" lon="16.0361249652">
        <ele>102.52</ele>
        <time>2012-09-01T08:30:26Z</time>
      </trkpt>
      <trkpt lat="58.6578199547" lon="16.0359764379">
        <ele>101.56</ele>
        <time>2012-09-01T08:30:37Z</time>
      </trkpt>
      <trkpt lat="58.6577200424" lon="16.0355944745">
        <ele>100.6</ele>
        <time>2012-09-01T08:30:47Z</time>
      </trkpt>
      <trkpt lat="58.6576094851" lon="16.0355642997">
        <ele>100.11</ele>
        <time>2012-09-01T08:30:52Z</time>
      </trkpt>
      <trkpt lat="58.6573509034" lon="16.0355195403">
        <ele>97.71</ele>
        <time>2012-09-01T08:31:03Z</time>
      </trkpt>
      <trkpt lat="58.6573190521" lon="16.0355247371">
        <ele>97.23</ele>
        <time>2012-09-01T08:31:04Z</time>
      </trkpt>
      <trkpt lat="58.6572143622" lon="16.0354834143">
        <ele>95.79</ele>
        <time>2012-09-01T08:31:08Z</time>
      </trkpt>
      <trkpt lat="58.6571441218" lon="16.0354630463">
        <ele>94.35</ele>
        <time>2012-09-01T08:31:11Z</time>
      </trkpt>
      <trkpt lat="58.6570753064" lon="16.0353268404">
        <ele>93.87</ele>
        <time>2012-09-01T08:31:15Z</time>
      </trkpt>
      <trkpt lat="58.6570484843" lon="16.0352631379">
        <ele>92.9</ele>
        <time>2012-09-01T08:31:17Z</time>
      </trkpt>
      <trkpt lat="58.6569548585" lon="16.035212595">
        <ele>91.94</ele>
        <time>2012-09-01T08:31:22Z</time>
      </trkpt>
      <trkpt lat="58.6569587141" lon="16.0350879561">
        <ele>92.9</ele>
        <time>2012-09-01T08:31:26Z</time>
      </trkpt>
      <trkpt lat="58.6569853686" lon="16.0350017902">
        <ele>92.9</ele>
        <time>2012-09-01T08:31:29Z</time>
      </trkpt>
      <trkpt lat="58.6570141185" lon="16.0348727088">
        <ele>92.9</ele>
        <time>2012-09-01T08:31:33Z</time>
      </trkpt>
      <trkpt lat="58.6571527552" lon="16.0344816931">
        <ele>93.87</ele>
        <time>2012-09-01T08:31:41Z</time>
      </trkpt>
      <trkpt lat="58.6571956705" lon="16.0342944413">
        <ele>93.87</ele>
        <time>2012-09-01T08:31:45Z</time>
      </trkpt>
      <trkpt lat="58.657099111" lon="16.0340670403">
        <ele>93.87</ele>
        <time>2012-09-01T08:31:51Z</time>
      </trkpt>
      <trkpt lat="58.6570131965" lon="16.0338909365">
        <ele>93.87</ele>
        <time>2012-09-01T08:31:55Z</time>
      </trkpt>
      <trkpt lat="58.6569407769" lon="16.0335680656">
        <ele>93.87</ele>
        <time>2012-09-01T08:32:05Z</time>
      </trkpt>
      <trkpt lat="58.6569178104" lon="16.0334305186">
        <ele>93.87</ele>
        <time>2012-09-01T08:32:09Z</time>
      </trkpt>
      <trkpt lat="58.6569155473" lon="16.0333430115">
        <ele>93.87</ele>
        <time>2012-09-01T08:32:11Z</time>
      </trkpt>
      <trkpt lat="58.6568603944" lon="16.0326329805">
        <ele>94.83</ele>
        <time>2012-09-01T08:32:21Z</time>
      </trkpt>
      <trkpt lat="58.6568850372" lon="16.0321464948">
        <ele>95.79</ele>
        <time>2012-09-01T08:32:32Z</time>
      </trkpt>
      <trkpt lat="58.656912446" lon="16.0319573153">
        <ele>96.27</ele>
        <time>2012-09-01T08:32:37Z</time>
      </trkpt>
      <trkpt lat="58.6571515817" lon="16.0315081291">
        <ele>97.23</ele>
        <time>2012-09-01T08:32:49Z</time>
      </trkpt>
      <trkpt lat="58.6571875401" lon="16.0314469412">
        <ele>97.71</ele>
        <time>2012-09-01T08:32:51Z</time>
      </trkpt>
      <trkpt lat="58.6572603788" lon="16.0313279182">
        <ele>98.19</ele>
        <time>2012-09-01T08:32:55Z</time>
      </trkpt>
      <trkpt lat="58.6572759692" lon="16.0313000064">
        <ele>98.19</ele>
        <time>2012-09-01T08:32:56Z</time>
      </trkpt>
      <trkpt lat="58.6573459581" lon="16.031140415">
        <ele>99.15</ele>
        <time>2012-09-01T08:33:00Z</time>
      </trkpt>
      <trkpt lat="58.6573741212" lon="16.0310451966">
        <ele>98.67</ele>
        <time>2012-09-01T08:33:03Z</time>
      </trkpt>
      <trkpt lat="58.6574004404" lon="16.0309037101">
        <ele>98.67</ele>
        <time>2012-09-01T08:33:06Z</time>
      </trkpt>
      <trkpt lat="58.6574227363" lon="16.0308412649">
        <ele>99.15</ele>
        <time>2012-09-01T08:33:08Z</time>
      </trkpt>
      <trkpt lat="58.6574671604" lon="16.0305978544">
        <ele>100.11</ele>
        <time>2012-09-01T08:33:14Z</time>
      </trkpt>
      <trkpt lat="58.657533126" lon="16.03044983">
        <ele>100.11</ele>
        <time>2012-09-01T08:33:18Z</time>
      </trkpt>
      <trkpt lat="58.6575734429" lon="16.0302407853">
        <ele>100.11</ele>
        <time>2012-09-01T08:33:22Z</time>
      </trkpt>
      <trkpt lat="58.6575824115" lon="16.0299757496">
        <ele>101.08</ele>
        <time>2012-09-01T08:33:26Z</time>
      </trkpt>
      <trkpt lat="58.6575722694" lon="16.0297272261">
        <ele>102.04</ele>
        <time>2012-09-01T08:33:31Z</time>
      </trkpt>
      <trkpt lat="58.6576140951" lon="16.0293696541">
        <ele>103.96</ele>
        <time>2012-09-01T08:33:39Z</time>
      </trkpt>
      <trkpt lat="58.6576230638" lon="16.0291974898">
        <ele>104.44</ele>
        <time>2012-09-01T08:33:43Z</time>
      </trkpt>
      <trkpt lat="58.6575906258" lon="16.0289226472">
        <ele>104.44</ele>
        <time>2012-09-01T08:33:47Z</time>
      </trkpt>
      <trkpt lat="58.6577189527" lon="16.0284683481">
        <ele>105.88</ele>
        <time>2012-09-01T08:33:58Z</time>
      </trkpt>
      <trkpt lat="58.6577360518" lon="16.0284404363">
        <ele>105.88</ele>
        <time>2012-09-01T08:33:59Z</time>
      </trkpt>
      <trkpt lat="58.6579278298" lon="16.028157128">
        <ele>107.81</ele>
        <time>2012-09-01T08:34:09Z</time>
      </trkpt>
      <trkpt lat="58.6579551548" lon="16.0281049088">
        <ele>108.29</ele>
        <time>2012-09-01T08:34:11Z</time>
      </trkpt>
      <trkpt lat="58.65800553" lon="16.0280456487">
        <ele>108.77</ele>
        <time>2012-09-01T08:34:14Z</time>
      </trkpt>
      <trkpt lat="58.6580658797" lon="16.027985299">
        <ele>109.25</ele>
        <time>2012-09-01T08:34:17Z</time>
      </trkpt>
      <trkpt lat="58.6581766047" lon="16.0278438125">
        <ele>110.21</ele>
        <time>2012-09-01T08:34:23Z</time>
      </trkpt>
      <trkpt lat="58.6582124792" lon="16.0277116299">
        <ele>110.21</ele>
        <time>2012-09-01T08:34:26Z</time>
      </trkpt>
      <trkpt lat="58.6583327595" lon="16.0271797981">
        <ele>111.17</ele>
        <time>2012-09-01T08:34:37Z</time>
      </trkpt>
      <trkpt lat="58.6583591625" lon="16.0270202067">
        <ele>111.65</ele>
        <time>2012-09-01T08:34:41Z</time>
      </trkpt>
      <trkpt lat="58.6584209371" lon="16.0268364754">
        <ele>112.13</ele>
        <time>2012-09-01T08:34:47Z</time>
      </trkpt>
      <trkpt lat="58.6585146468" lon="16.0262509156">
        <ele>113.57</ele>
        <time>2012-09-01T08:35:00Z</time>
      </trkpt>
      <trkpt lat="58.6585231964" lon="16.0261986963">
        <ele>113.57</ele>
        <time>2012-09-01T08:35:01Z</time>
      </trkpt>
      <trkpt lat="58.6585637648" lon="16.0261277016">
        <ele>113.57</ele>
        <time>2012-09-01T08:35:03Z</time>
      </trkpt>
      <trkpt lat="58.6585711408" lon="16.0260814335">
        <ele>113.57</ele>
        <time>2012-09-01T08:35:04Z</time>
      </trkpt>
      <trkpt lat="58.6585672852" lon="16.0257827025">
        <ele>114.05</ele>
        <time>2012-09-01T08:35:09Z</time>
      </trkpt>
      <trkpt lat="58.6585777625" lon="16.0256050061">
        <ele>114.53</ele>
        <time>2012-09-01T08:35:12Z</time>
      </trkpt>
      <trkpt lat="58.6586122122" lon="16.0253391322">
        <ele>115.01</ele>
        <time>2012-09-01T08:35:17Z</time>
      </trkpt>
      <trkpt lat="58.6586545408" lon="16.0251568258">
        <ele>115.01</ele>
        <time>2012-09-01T08:35:21Z</time>
      </trkpt>
      <trkpt lat="58.6587400362" lon="16.0248046182">
        <ele>115.01</ele>
        <time>2012-09-01T08:35:31Z</time>
      </trkpt>
      <trkpt lat="58.6587745696" lon="16.0246877745">
        <ele>115.01</ele>
        <time>2012-09-01T08:35:35Z</time>
      </trkpt>
      <trkpt lat="58.6588370148" lon="16.0245956574">
        <ele>115.5</ele>
        <time>2012-09-01T08:35:38Z</time>
      </trkpt>
      <trkpt lat="58.6589543615" lon="16.024402203">
        <ele>115.5</ele>
        <time>2012-09-01T08:35:43Z</time>
      </trkpt>
      <trkpt lat="58.6591040622" lon="16.0242092516">
        <ele>115.5</ele>
        <time>2012-09-01T08:35:49Z</time>
      </trkpt>
      <trkpt lat="58.6591891386" lon="16.0241482314">
        <ele>115.5</ele>
        <time>2012-09-01T08:35:52Z</time>
      </trkpt>
      <trkpt lat="58.6592900567" lon="16.0236015636">
        <ele>115.5</ele>
        <time>2012-09-01T08:36:03Z</time>
      </trkpt>
      <trkpt lat="58.659411259" lon="16.02314936">
        <ele>115.98</ele>
        <time>2012-09-01T08:36:13Z</time>
      </trkpt>
      <trkpt lat="58.6594934016" lon="16.0228407383">
        <ele>115.98</ele>
        <time>2012-09-01T08:36:20Z</time>
      </trkpt>
      <trkpt lat="58.6595517397" lon="16.022714423">
        <ele>115.98</ele>
        <time>2012-09-01T08:36:24Z</time>
      </trkpt>
      <trkpt lat="58.6596407555" lon="16.0225867666">
        <ele>116.46</ele>
        <time>2012-09-01T08:36:29Z</time>
      </trkpt>
      <trkpt lat="58.6599126644" lon="16.0223897919">
        <ele>115.5</ele>
        <time>2012-09-01T08:36:40Z</time>
      </trkpt>
      <trkpt lat="58.6600303464" lon="16.0222250875">
        <ele>115.98</ele>
        <time>2012-09-01T08:36:46Z</time>
      </trkpt>
      <trkpt lat="58.660107879" lon="16.0221387539">
        <ele>115.5</ele>
        <time>2012-09-01T08:36:49Z</time>
      </trkpt>
      <trkpt lat="58.6602812167" lon="16.0217822716">
        <ele>115.5</ele>
        <time>2012-09-01T08:36:57Z</time>
      </trkpt>
      <trkpt lat="58.660400575" lon="16.0214816127">
        <ele>114.53</ele>
        <time>2012-09-01T08:37:04Z</time>
      </trkpt>
      <trkpt lat="58.6606892478" lon="16.0209662933">
        <ele>112.61</ele>
        <time>2012-09-01T08:37:16Z</time>
      </trkpt>
      <trkpt lat="58.6607469153" lon="16.0207659658">
        <ele>112.13</ele>
        <time>2012-09-01T08:37:20Z</time>
      </trkpt>
      <trkpt lat="58.6607907526" lon="16.0205292609">
        <ele>111.65</ele>
        <time>2012-09-01T08:37:25Z</time>
      </trkpt>
      <trkpt lat="58.66089385" lon="16.0199860297">
        <ele>110.21</ele>
        <time>2012-09-01T08:37:36Z</time>
      </trkpt>
      <trkpt lat="58.6609626655" lon="16.0197367519">
        <ele>108.77</ele>
        <time>2012-09-01T08:37:41Z</time>
      </trkpt>
      <trkpt lat="58.6610533576" lon="16.0194721352">
        <ele>108.29</ele>
        <time>2012-09-01T08:37:47Z</time>
      </trkpt>
      <trkpt lat="58.6610728875" lon="16.0192917567">
        <ele>107.81</ele>
        <time>2012-09-01T08:37:51Z</time>
      </trkpt>
      <trkpt lat="58.661071714" lon="16.0191205982">
        <ele>108.29</ele>
        <time>2012-09-01T08:37:55Z</time>
      </trkpt>
      <trkpt lat="58.6610932555" lon="16.0186858289">
        <ele>107.81</ele>
        <time>2012-09-01T08:38:05Z</time>
      </trkpt>
      <trkpt lat="58.6612497456" lon="16.0182034504">
        <ele>107.32</ele>
        <time>2012-09-01T08:38:15Z</time>
      </trkpt>
      <trkpt lat="58.6612842791" lon="16.018102197">
        <ele>107.32</ele>
        <time>2012-09-01T08:38:17Z</time>
      </trkpt>
      <trkpt lat="58.6613429524" lon="16.0178664979">
        <ele>107.81</ele>
        <time>2012-09-01T08:38:23Z</time>
      </trkpt>
      <trkpt lat="58.6613505799" lon="16.0176461376">
        <ele>107.81</ele>
        <time>2012-09-01T08:38:27Z</time>
      </trkpt>
      <trkpt lat="58.6611551978" lon="16.0169468354">
        <ele>105.88</ele>
        <time>2012-09-01T08:38:40Z</time>
      </trkpt>
      <trkpt lat="58.6611387692" lon="16.016773833">
        <ele>105.4</ele>
        <time>2012-09-01T08:38:43Z</time>
      </trkpt>
      <trkpt lat="58.6611531861" lon="16.0164452624">
        <ele>105.4</ele>
        <time>2012-09-01T08:38:49Z</time>
      </trkpt>
      <trkpt lat="58.6611836962" lon="16.016243007">
        <ele>104.44</ele>
        <time>2012-09-01T08:38:53Z</time>
      </trkpt>
      <trkpt lat="58.6611945927" lon="16.0161595233">
        <ele>103.96</ele>
        <time>2012-09-01T08:38:55Z</time>
      </trkpt>
      <trkpt lat="58.6611428764" lon="16.0158795677">
        <ele>103.48</ele>
        <time>2012-09-01T08:39:01Z</time>
      </trkpt>
      <trkpt lat="58.6609841231" lon="16.0157047212">
        <ele>103</ele>
        <time>2012-09-01T08:39:08Z</time>
      </trkpt>
      <trkpt lat="58.6608147249" lon="16.0155464709">
        <ele>102.04</ele>
        <time>2012-09-01T08:39:15Z</time>
      </trkpt>
      <trkpt lat="58.6608730629" lon="16.0151215084">
        <ele>101.08</ele>
        <time>2012-09-01T08:39:24Z</time>
      </trkpt>
      <trkpt lat="58.6610241048" lon="16.0147629306">
        <ele>99.63</ele>
        <time>2012-09-01T08:39:32Z</time>
      </trkpt>
      <trkpt lat="58.6611363385" lon="16.0142215434">
        <ele>99.15</ele>
        <time>2012-09-01T08:39:42Z</time>
      </trkpt>
      <trkpt lat="58.6612430401" lon="16.0136960819">
        <ele>98.19</ele>
        <time>2012-09-01T08:39:54Z</time>
      </trkpt>
      <trkpt lat="58.6612561159" lon="16.0135748796">
        <ele>97.71</ele>
        <time>2012-09-01T08:39:56Z</time>
      </trkpt>
      <trkpt lat="58.6612971872" lon="16.0134171322">
        <ele>97.23</ele>
        <time>2012-09-01T08:39:59Z</time>
      </trkpt>
      <trkpt lat="58.6613680981" lon="16.0129844584">
        <ele>93.87</ele>
        <time>2012-09-01T08:40:09Z</time>
      </trkpt>
      <trkpt lat="58.6613734625" lon="16.0129305627">
        <ele>93.39</ele>
        <time>2012-09-01T08:40:10Z</time>
      </trkpt>
      <trkpt lat="58.6614905577" lon="16.0124919377">
        <ele>90.5</ele>
        <time>2012-09-01T08:40:19Z</time>
      </trkpt>
      <trkpt lat="58.6616566032" lon="16.0122306738">
        <ele>87.14</ele>
        <time>2012-09-01T08:40:28Z</time>
      </trkpt>
      <trkpt lat="58.6616736185" lon="16.0122052766">
        <ele>87.14</ele>
        <time>2012-09-01T08:40:29Z</time>
      </trkpt>
      <trkpt lat="58.6618731916" lon="16.0119189508">
        <ele>83.77</ele>
        <time>2012-09-01T08:40:39Z</time>
      </trkpt>
      <trkpt lat="58.6619242374" lon="16.0117757879">
        <ele>82.81</ele>
        <time>2012-09-01T08:40:42Z</time>
      </trkpt>
      <trkpt lat="58.6619457789" lon="16.0116814077">
        <ele>82.33</ele>
        <time>2012-09-01T08:40:44Z</time>
      </trkpt>
      <trkpt lat="58.6620259099" lon="16.0115488898">
        <ele>81.37</ele>
        <time>2012-09-01T08:40:48Z</time>
      </trkpt>
      <trkpt lat="58.6621971522" lon="16.0115167871">
        <ele>80.89</ele>
        <time>2012-09-01T08:40:56Z</time>
      </trkpt>
      <trkpt lat="58.6622699071" lon="16.0114695132">
        <ele>81.37</ele>
        <time>2012-09-01T08:41:00Z</time>
      </trkpt>
      <trkpt lat="58.6625975557" lon="16.011417713">
        <ele>80.41</ele>
        <time>2012-09-01T08:41:13Z</time>
      </trkpt>
      <trkpt lat="58.6627418082" lon="16.0112859495">
        <ele>80.41</ele>
        <time>2012-09-01T08:41:19Z</time>
      </trkpt>
      <trkpt lat="58.6629209295" lon="16.011037007">
        <ele>78.97</ele>
        <time>2012-09-01T08:41:27Z</time>
      </trkpt>
      <trkpt lat="58.6630200036" lon="16.010932317">
        <ele>78.97</ele>
        <time>2012-09-01T08:41:31Z</time>
      </trkpt>
      <trkpt lat="58.6632774957" lon="16.010729894">
        <ele>78.48</ele>
        <time>2012-09-01T08:41:41Z</time>
      </trkpt>
      <trkpt lat="58.6634353269" lon="16.0105876531">
        <ele>78.48</ele>
        <time>2012-09-01T08:41:47Z</time>
      </trkpt>
      <trkpt lat="58.6635136139" lon="16.0105274711">
        <ele>78.48</ele>
        <time>2012-09-01T08:41:50Z</time>
      </trkpt>
      <trkpt lat="58.663620064" lon="16.0104666185">
        <ele>78.97</ele>
        <time>2012-09-01T08:41:54Z</time>
      </trkpt>
      <trkpt lat="58.6636758037" lon="16.0104317497">
        <ele>78.97</ele>
        <time>2012-09-01T08:41:56Z</time>
      </trkpt>
      <trkpt lat="58.6639628001" lon="16.0103358608">
        <ele>78.48</ele>
        <time>2012-09-01T08:42:06Z</time>
      </trkpt>
      <trkpt lat="58.6641663965" lon="16.0103460029">
        <ele>78.48</ele>
        <time>2012-09-01T08:42:14Z</time>
      </trkpt>
      <trkpt lat="58.6644084658" lon="16.0103770159">
        <ele>79.45</ele>
        <time>2012-09-01T08:42:23Z</time>
      </trkpt>
      <trkpt lat="58.6645379663" lon="16.0103558097">
        <ele>79.45</ele>
        <time>2012-09-01T08:42:28Z</time>
      </trkpt>
      <trkpt lat="58.6648209393" lon="16.0101653729">
        <ele>79.45</ele>
        <time>2012-09-01T08:42:39Z</time>
      </trkpt>
      <trkpt lat="58.6648437381" lon="16.0101354495">
        <ele>79.45</ele>
        <time>2012-09-01T08:42:40Z</time>
      </trkpt>
      <trkpt lat="58.6650477536" lon="16.0097992513">
        <ele>80.41</ele>
        <time>2012-09-01T08:42:50Z</time>
      </trkpt>
      <trkpt lat="58.6652145535" lon="16.0093561839">
        <ele>79.93</ele>
        <time>2012-09-01T08:43:00Z</time>
      </trkpt>
      <trkpt lat="58.6653462332" lon="16.0088919103">
        <ele>79.45</ele>
        <time>2012-09-01T08:43:11Z</time>
      </trkpt>
      <trkpt lat="58.6654834449" lon="16.0084077716">
        <ele>79.93</ele>
        <time>2012-09-01T08:43:22Z</time>
      </trkpt>
      <trkpt lat="58.6656509992" lon="16.0079730023">
        <ele>78.97</ele>
        <time>2012-09-01T08:43:33Z</time>
      </trkpt>
      <trkpt lat="58.6658466328" lon="16.0074621253">
        <ele>79.45</ele>
        <time>2012-09-01T08:43:45Z</time>
      </trkpt>
      <trkpt lat="58.6659600399" lon="16.0071382485">
        <ele>78.97</ele>
        <time>2012-09-01T08:43:55Z</time>
      </trkpt>
      <trkpt lat="58.6658988521" lon="16.0071101692">
        <ele>78</ele>
        <time>2012-09-01T08:43:59Z</time>
      </trkpt>
      <trkpt lat="58.6658706889" lon="16.0069260187">
        <ele>76.08</ele>
        <time>2012-09-01T08:44:07Z</time>
      </trkpt>
      <trkpt lat="58.6658999417" lon="16.0066976957">
        <ele>75.6</ele>
        <time>2012-09-01T08:44:13Z</time>
      </trkpt>
      <trkpt lat="58.6658872012" lon="16.0065541137">
        <ele>75.6</ele>
        <time>2012-09-01T08:44:17Z</time>
      </trkpt>
      <trkpt lat="58.6658881232" lon="16.0064388625">
        <ele>76.08</ele>
        <time>2012-09-01T08:44:20Z</time>
      </trkpt>
      <trkpt lat="58.6658975948" lon="16.0064006411">
        <ele>76.08</ele>
        <time>2012-09-01T08:44:21Z</time>
      </trkpt>
      <trkpt lat="58.6658983491" lon="16.0063695442">
        <ele>76.08</ele>
        <time>2012-09-01T08:44:22Z</time>
      </trkpt>
      <trkpt lat="58.6658973433" lon="16.0061816219">
        <ele>76.56</ele>
        <time>2012-09-01T08:44:26Z</time>
      </trkpt>
      <trkpt lat="58.6658012029" lon="16.0057120677">
        <ele>74.64</ele>
        <time>2012-09-01T08:44:35Z</time>
      </trkpt>
      <trkpt lat="58.6657171324" lon="16.0054259095">
        <ele>73.68</ele>
        <time>2012-09-01T08:44:44Z</time>
      </trkpt>
      <trkpt lat="58.6657229159" lon="16.0052912124">
        <ele>73.68</ele>
        <time>2012-09-01T08:44:47Z</time>
      </trkpt>
      <trkpt lat="58.6656970158" lon="16.0051489715">
        <ele>73.68</ele>
        <time>2012-09-01T08:44:51Z</time>
      </trkpt>
      <trkpt lat="58.6657131091" lon="16.0049048904">
        <ele>73.68</ele>
        <time>2012-09-01T08:44:58Z</time>
      </trkpt>
      <trkpt lat="58.6658594571" lon="16.0045782477">
        <ele>73.2</ele>
        <time>2012-09-01T08:45:06Z</time>
      </trkpt>
      <trkpt lat="58.6660079006" lon="16.0040615033">
        <ele>72.72</ele>
        <time>2012-09-01T08:45:17Z</time>
      </trkpt>
      <trkpt lat="58.6660370696" lon="16.0039943643">
        <ele>72.72</ele>
        <time>2012-09-01T08:45:19Z</time>
      </trkpt>
      <trkpt lat="58.6660816614" lon="16.0038204398">
        <ele>72.24</ele>
        <time>2012-09-01T08:45:22Z</time>
      </trkpt>
      <trkpt lat="58.6661473755" lon="16.0035895184">
        <ele>71.27</ele>
        <time>2012-09-01T08:45:27Z</time>
      </trkpt>
      <trkpt lat="58.6663069669" lon="16.0031544138">
        <ele>71.76</ele>
        <time>2012-09-01T08:45:38Z</time>
      </trkpt>
      <trkpt lat="58.6663308553" lon="16.0030710138">
        <ele>71.27</ele>
        <time>2012-09-01T08:45:41Z</time>
      </trkpt>
      <trkpt lat="58.6663891096" lon="16.0029508173">
        <ele>71.76</ele>
        <time>2012-09-01T08:45:46Z</time>
      </trkpt>
      <trkpt lat="58.6665702425" lon="16.0029209778">
        <ele>70.79</ele>
        <time>2012-09-01T08:45:54Z</time>
      </trkpt>
      <trkpt lat="58.6668387149" lon="16.002624426">
        <ele>70.31</ele>
        <time>2012-09-01T08:46:06Z</time>
      </trkpt>
      <trkpt lat="58.6670511961" lon="16.0021736473">
        <ele>70.31</ele>
        <time>2012-09-01T08:46:18Z</time>
      </trkpt>
      <trkpt lat="58.6670715641" lon="16.0016814619">
        <ele>69.83</ele>
        <time>2012-09-01T08:46:29Z</time>
      </trkpt>
      <trkpt lat="58.6670750007" lon="16.0014295019">
        <ele>69.83</ele>
        <time>2012-09-01T08:46:34Z</time>
      </trkpt>
      <trkpt lat="58.6671013199" lon="16.0013885144">
        <ele>70.31</ele>
        <time>2012-09-01T08:46:36Z</time>
      </trkpt>
      <trkpt lat="58.667136021" lon="16.00084126">
        <ele>72.72</ele>
        <time>2012-09-01T08:46:45Z</time>
      </trkpt>
      <trkpt lat="58.6671957001" lon="16.0004525911">
        <ele>73.2</ele>
        <time>2012-09-01T08:46:53Z</time>
      </trkpt>
      <trkpt lat="58.6672221869" lon="16.0002220888">
        <ele>72.72</ele>
        <time>2012-09-01T08:46:56Z</time>
      </trkpt>
      <trkpt lat="58.6672236957" lon="15.9999821149">
        <ele>72.72</ele>
        <time>2012-09-01T08:46:59Z</time>
      </trkpt>
      <trkpt lat="58.6672674492" lon="15.9996403009">
        <ele>72.24</ele>
        <time>2012-09-01T08:47:07Z</time>
      </trkpt>
      <trkpt lat="58.667310616" lon="15.9994987305">
        <ele>71.76</ele>
        <time>2012-09-01T08:47:10Z</time>
      </trkpt>
      <trkpt lat="58.6673116218" lon="15.9993069526">
        <ele>71.76</ele>
        <time>2012-09-01T08:47:14Z</time>
      </trkpt>
      <trkpt lat="58.6673106998" lon="15.9992253967">
        <ele>71.27</ele>
        <time>2012-09-01T08:47:16Z</time>
      </trkpt>
      <trkpt lat="58.6673265416" lon="15.9991849121">
        <ele>71.27</ele>
        <time>2012-09-01T08:47:18Z</time>
      </trkpt>
      <trkpt lat="58.6673505977" lon="15.9991195332">
        <ele>71.76</ele>
        <time>2012-09-01T08:47:20Z</time>
      </trkpt>
      <trkpt lat="58.6672273837" lon="15.9986085724">
        <ele>71.76</ele>
        <time>2012-09-01T08:47:29Z</time>
      </trkpt>
      <trkpt lat="58.6671148986" lon="15.9980515949">
        <ele>71.76</ele>
        <time>2012-09-01T08:47:36Z</time>
      </trkpt>
      <trkpt lat="58.6670782696" lon="15.9977696277">
        <ele>72.24</ele>
        <time>2012-09-01T08:47:41Z</time>
      </trkpt>
      <trkpt lat="58.6670662835" lon="15.9973272309">
        <ele>72.24</ele>
        <time>2012-09-01T08:47:50Z</time>
      </trkpt>
      <trkpt lat="58.6668760143" lon="15.99691635">
        <ele>72.72</ele>
        <time>2012-09-01T08:48:01Z</time>
      </trkpt>
      <trkpt lat="58.666532021" lon="15.9967057128">
        <ele>72.24</ele>
        <time>2012-09-01T08:48:14Z</time>
      </trkpt>
      <trkpt lat="58.666262459" lon="15.9967370611">
        <ele>72.24</ele>
        <time>2012-09-01T08:48:24Z</time>
      </trkpt>
      <trkpt lat="58.6660539173" lon="15.9970697388">
        <ele>72.24</ele>
        <time>2012-09-01T08:48:35Z</time>
      </trkpt>
      <trkpt lat="58.6659616325" lon="15.9973145742">
        <ele>73.2</ele>
        <time>2012-09-01T08:48:41Z</time>
      </trkpt>
      <trkpt lat="58.6658874527" lon="15.9975574818">
        <ele>72.72</ele>
        <time>2012-09-01T08:48:46Z</time>
      </trkpt>
      <trkpt lat="58.6658162903" lon="15.9977689572">
        <ele>73.2</ele>
        <time>2012-09-01T08:48:50Z</time>
      </trkpt>
      <trkpt lat="58.6657074094" lon="15.9981566202">
        <ele>73.68</ele>
        <time>2012-09-01T08:48:58Z</time>
      </trkpt>
      <trkpt lat="58.6655297969" lon="15.9988068044">
        <ele>73.68</ele>
        <time>2012-09-01T08:49:11Z</time>
      </trkpt>
      <trkpt lat="58.6653603148" lon="15.9992586728">
        <ele>75.12</ele>
        <time>2012-09-01T08:49:22Z</time>
      </trkpt>
      <trkpt lat="58.6652121227" lon="15.9995426517">
        <ele>74.64</ele>
        <time>2012-09-01T08:49:30Z</time>
      </trkpt>
      <trkpt lat="58.664930407" lon="15.9999081865">
        <ele>75.12</ele>
        <time>2012-09-01T08:49:43Z</time>
      </trkpt>
      <trkpt lat="58.6648388766" lon="16.000029305">
        <ele>75.6</ele>
        <time>2012-09-01T08:49:47Z</time>
      </trkpt>
      <trkpt lat="58.6647344381" lon="16.000153441">
        <ele>75.6</ele>
        <time>2012-09-01T08:49:52Z</time>
      </trkpt>
      <trkpt lat="58.664477868" lon="16.0004420299">
        <ele>77.04</ele>
        <time>2012-09-01T08:50:03Z</time>
      </trkpt>
      <trkpt lat="58.6643451825" lon="16.0005719494">
        <ele>76.56</ele>
        <time>2012-09-01T08:50:09Z</time>
      </trkpt>
      <trkpt lat="58.6641693301" lon="16.0007311217">
        <ele>76.56</ele>
        <time>2012-09-01T08:50:16Z</time>
      </trkpt>
      <trkpt lat="58.6639363132" lon="16.0009682458">
        <ele>77.04</ele>
        <time>2012-09-01T08:50:26Z</time>
      </trkpt>
      <trkpt lat="58.6636987701" lon="16.0012497101">
        <ele>77.04</ele>
        <time>2012-09-01T08:50:37Z</time>
      </trkpt>
      <trkpt lat="58.6634616461" lon="16.0015506204">
        <ele>77.52</ele>
        <time>2012-09-01T08:50:48Z</time>
      </trkpt>
      <trkpt lat="58.6633577105" lon="16.0016951244">
        <ele>78</ele>
        <time>2012-09-01T08:50:53Z</time>
      </trkpt>
      <trkpt lat="58.6633189861" lon="16.0017634369">
        <ele>77.52</ele>
        <time>2012-09-01T08:50:55Z</time>
      </trkpt>
      <trkpt lat="58.663138859" lon="16.0021708813">
        <ele>77.52</ele>
        <time>2012-09-01T08:51:06Z</time>
      </trkpt>
      <trkpt lat="58.6630816106" lon="16.0023355857">
        <ele>78</ele>
        <time>2012-09-01T08:51:10Z</time>
      </trkpt>
      <trkpt lat="58.6629784293" lon="16.002639262">
        <ele>78</ele>
        <time>2012-09-01T08:51:17Z</time>
      </trkpt>
      <trkpt lat="58.6628785171" lon="16.0029771365">
        <ele>78</ele>
        <time>2012-09-01T08:51:26Z</time>
      </trkpt>
      <trkpt lat="58.6628558859" lon="16.0030497238">
        <ele>78.48</ele>
        <time>2012-09-01T08:51:28Z</time>
      </trkpt>
      <trkpt lat="58.6628069356" lon="16.0031699203">
        <ele>78.48</ele>
        <time>2012-09-01T08:51:31Z</time>
      </trkpt>
      <trkpt lat="58.6626837216" lon="16.0035381373">
        <ele>78.48</ele>
        <time>2012-09-01T08:51:40Z</time>
      </trkpt>
      <trkpt lat="58.6626612581" lon="16.0036186036">
        <ele>78</ele>
        <time>2012-09-01T08:51:42Z</time>
      </trkpt>
      <trkpt lat="58.6626154091" lon="16.0037270654">
        <ele>78</ele>
        <time>2012-09-01T08:51:45Z</time>
      </trkpt>
      <trkpt lat="58.6625429895" lon="16.0039226152">
        <ele>78.48</ele>
        <time>2012-09-01T08:51:50Z</time>
      </trkpt>
      <trkpt lat="58.6625025887" lon="16.0040611681">
        <ele>78.48</ele>
        <time>2012-09-01T08:51:53Z</time>
      </trkpt>
      <trkpt lat="58.6624132376" lon="16.0043652635">
        <ele>78.48</ele>
        <time>2012-09-01T08:52:01Z</time>
      </trkpt>
      <trkpt lat="58.6623201985" lon="16.0045983642">
        <ele>78</ele>
        <time>2012-09-01T08:52:07Z</time>
      </trkpt>
      <trkpt lat="58.6621734314" lon="16.0050290264">
        <ele>78.48</ele>
        <time>2012-09-01T08:52:17Z</time>
      </trkpt>
      <trkpt lat="58.6620917078" lon="16.0053111613">
        <ele>78.48</ele>
        <time>2012-09-01T08:52:23Z</time>
      </trkpt>
      <trkpt lat="58.6620395724" lon="16.0054985806">
        <ele>78</ele>
        <time>2012-09-01T08:52:27Z</time>
      </trkpt>
      <trkpt lat="58.6619016901" lon="16.0060040094">
        <ele>78.48</ele>
        <time>2012-09-01T08:52:39Z</time>
      </trkpt>
      <trkpt lat="58.6618814059" lon="16.0059976391">
        <ele>78.48</ele>
        <time>2012-09-01T08:52:50Z</time>
      </trkpt>
      <trkpt lat="58.6618985888" lon="16.00600929">
        <ele>78.48</ele>
        <time>2012-09-01T08:53:02Z</time>
      </trkpt>
      <trkpt lat="58.6618653126" lon="16.0060102958">
        <ele>78.48</ele>
        <time>2012-09-01T08:53:18Z</time>
      </trkpt>
      <trkpt lat="58.6618617922" lon="16.005993532">
        <ele>78.48</ele>
        <time>2012-09-01T08:53:32Z</time>
      </trkpt>
      <trkpt lat="58.6618560925" lon="16.0059974715">
        <ele>78.97</ele>
        <time>2012-09-01T08:53:48Z</time>
      </trkpt>
      <trkpt lat="58.6618829146" lon="16.0060490202">
        <ele>78.97</ele>
        <time>2012-09-01T08:54:04Z</time>
      </trkpt>
      <trkpt lat="58.6618762091" lon="16.0060009081">
        <ele>78.97</ele>
        <time>2012-09-01T08:54:18Z</time>
      </trkpt>
      <trkpt lat="58.6617384944" lon="16.0061006527">
        <ele>78.97</ele>
        <time>2012-09-01T08:54:35Z</time>
      </trkpt>
    </trkseg>
  </trk>
</gpx>